Vuilleumier, Laurent (2013): Radiosonde measurements from station Payerne (2010-01) [dataset]. Swiss Meteorological Agency, Payerne, PANGAEA, https://doi.org/10.1594/PANGAEA.810163
Always quote citation above when using data! You can download the citation in several formats below.
Published: 2013-04-12 • DOI registered: 2013-05-10
Other version:
Vuilleumier, Laurent (2013): BSRN Station-to-archive file for station Payerne (2010-01). ftp://ftp.bsrn.awi.de/pay/pay0110.dat.gz
Project(s):
Coverage:
Latitude: 46.812300 * Longitude: 6.942200
Date/Time Start: 2010-01-01T00:00:00 * Date/Time End: 2010-01-31T12:00:00
Minimum ALTITUDE: 491 m * Maximum ALTITUDE: 34541 m
Event(s):
PAY (Payerne) * Latitude: 46.812300 * Longitude: 6.942200 * Date/Time: 1992-09-01T00:00:00 * Elevation: 491.0 m * Location: Switzerland * Method/Device: Monitoring station (MONS) * Comment: BSRN station no: 21; Surface type: cultivated; Topography type: hilly, rural; Horizon: doi:10.1594/PANGAEA.947035; Station scientist: Laurent Vuilleumier (laurent.vuilleumier@meteoswiss.ch)
Parameter(s):
| # | Name | Short Name | Unit | Principal Investigator | Method/Device | Comment |
|---|---|---|---|---|---|---|
| 1 | DATE/TIME | Date/Time | Geocode | |||
| 2 | ALTITUDE | Altitude | m | Geocode | ||
| 3 | Pressure, at given altitude | PPPP | hPa | Vuilleumier, Laurent | Radiosonde, METEOLABOR AG, SRSCH | |
| 4 | Temperature, air | TTT | °C | Vuilleumier, Laurent | Radiosonde, METEOLABOR AG, SRSCH | |
| 5 | Dew/frost point | TdTdTd | °C | Vuilleumier, Laurent | Radiosonde, METEOLABOR AG, SRSCH | |
| 6 | Wind direction | dd | deg | Vuilleumier, Laurent | Radiosonde, METEOLABOR AG, SRSCH | |
| 7 | Wind speed | ff | m/s | Vuilleumier, Laurent | Radiosonde, METEOLABOR AG, SRSCH | |
| 8 | Ozone, partial pressure | pO3 | mPa | Vuilleumier, Laurent | Radiosonde, METEOLABOR AG, SRSCH |
License:
Size:
291019 data points
Data
| 1 Date/Time | 2 Altitude [m] | 3 PPPP [hPa] | 4 TTT [°C] | 5 TdTdTd [°C] | 6 dd [deg] | 7 ff [m/s] | 8 pO3 [mPa] |
|---|---|---|---|---|---|---|---|
| 2010-01-01T00:00 | 491 | 936 | 4.4 | 4.4 | 166 | 0 | |
| 2010-01-01T00:00 | 500 | 935 | 4.8 | 4.4 | |||
| 2010-01-01T00:00 | 504 | 934 | 4.7 | 4.5 | |||
| 2010-01-01T00:00 | 535 | 931 | 4.7 | 4.6 | |||
| 2010-01-01T00:00 | 553 | 929 | 4.7 | 4.6 | |||
| 2010-01-01T00:00 | 562 | 928 | 4.6 | 4.6 | |||
| 2010-01-01T00:00 | 586 | 925 | 4.6 | 4.6 | |||
| 2010-01-01T00:00 | 597 | 924 | 4.6 | 4.6 | |||
| 2010-01-01T00:00 | 613 | 922 | 4.6 | 4.6 | |||
| 2010-01-01T00:00 | 622 | 921 | 4.6 | 4.5 | |||
| 2010-01-01T00:00 | 633 | 920 | 4.4 | 4.4 | 349 | 3 | |
| 2010-01-01T00:00 | 650 | 918 | 4.2 | 4.2 | |||
| 2010-01-01T00:00 | 653 | 917 | 4.3 | 4.3 | |||
| 2010-01-01T00:00 | 654 | 917 | 4.3 | 4.3 | |||
| 2010-01-01T00:00 | 664 | 916 | 4.4 | 4.4 | 20 | 3 | |
| 2010-01-01T00:00 | 670 | 916 | 4.3 | 4.3 | |||
| 2010-01-01T00:00 | 673 | 915 | 4.3 | 4.2 | |||
| 2010-01-01T00:00 | 685 | 914 | 4.3 | 4.3 | |||
| 2010-01-01T00:00 | 691 | 913 | 4.2 | 4.2 | |||
| 2010-01-01T00:00 | 694 | 913 | 4.2 | 4.2 | 27 | 3 | |
| 2010-01-01T00:00 | 714 | 911 | 4.1 | 4.1 | |||
| 2010-01-01T00:00 | 725 | 909 | 4.1 | 4.1 | |||
| 2010-01-01T00:00 | 730 | 909 | 4.0 | 4.0 | |||
| 2010-01-01T00:00 | 741 | 908 | 4.0 | 3.9 | 22 | 2 | |
| 2010-01-01T00:00 | 751 | 906 | 3.9 | 3.9 | |||
| 2010-01-01T00:00 | 762 | 905 | 3.9 | 3.9 | |||
| 2010-01-01T00:00 | 767 | 905 | 3.9 | 3.9 | |||
| 2010-01-01T00:00 | 782 | 903 | 4.0 | 4.0 | |||
| 2010-01-01T00:00 | 784 | 903 | 4.0 | 4.0 | 15 | 2 | |
| 2010-01-01T00:00 | 787 | 902 | 4.0 | 3.9 | |||
| 2010-01-01T00:00 | 789 | 902 | 3.9 | 3.9 | |||
| 2010-01-01T00:00 | 809 | 900 | 3.8 | 3.8 | |||
| 2010-01-01T00:00 | 821 | 899 | 3.8 | 3.8 | |||
| 2010-01-01T00:00 | 827 | 898 | 3.7 | 3.7 | 3 | 1 | |
| 2010-01-01T00:00 | 854 | 895 | 3.6 | 3.6 | |||
| 2010-01-01T00:00 | 869 | 893 | 3.5 | 3.5 | |||
| 2010-01-01T00:00 | 877 | 893 | 3.4 | 3.4 | |||
| 2010-01-01T00:00 | 896 | 890 | 3.3 | 3.3 | 336 | 1 | |
| 2010-01-01T00:00 | 910 | 889 | 3.3 | 3.3 | |||
| 2010-01-01T00:00 | 920 | 888 | 3.2 | 3.2 | |||
| 2010-01-01T00:00 | 925 | 887 | 3.2 | 3.1 | |||
| 2010-01-01T00:00 | 942 | 885 | 3.1 | 3.1 | |||
| 2010-01-01T00:00 | 946 | 885 | 3.1 | 3.1 | 301 | 1 | |
| 2010-01-01T00:00 | 949 | 885 | 3.1 | 3.1 | |||
| 2010-01-01T00:00 | 953 | 884 | 3.0 | 3.0 | |||
| 2010-01-01T00:00 | 968 | 883 | 2.9 | 2.9 | |||
| 2010-01-01T00:00 | 976 | 882 | 2.9 | 2.9 | |||
| 2010-01-01T00:00 | 980 | 881 | 2.8 | 2.8 | |||
| 2010-01-01T00:00 | 983 | 881 | 2.8 | 2.8 | 282 | 1 | |
| 2010-01-01T00:00 | 999 | 879 | 2.8 | 2.8 | |||
| 2010-01-01T00:00 | 1006 | 878 | 2.8 | 2.8 | |||
| 2010-01-01T00:00 | 1009 | 878 | 2.7 | 2.7 | |||
| 2010-01-01T00:00 | 1022 | 877 | 2.6 | 2.6 | 271 | 1 | |
| 2010-01-01T00:00 | 1026 | 876 | 2.6 | 2.6 | |||
| 2010-01-01T00:00 | 1036 | 875 | 2.5 | 2.5 | |||
| 2010-01-01T00:00 | 1041 | 875 | 2.5 | 2.4 | |||
| 2010-01-01T00:00 | 1066 | 872 | 2.4 | 2.4 | |||
| 2010-01-01T00:00 | 1071 | 871 | 2.4 | 2.3 | 261 | 1 | |
| 2010-01-01T00:00 | 1075 | 871 | 2.3 | 2.3 | |||
| 2010-01-01T00:00 | 1080 | 870 | 2.3 | 2.3 | |||
| 2010-01-01T00:00 | 1100 | 868 | 2.1 | 2.1 | |||
| 2010-01-01T00:00 | 1111 | 867 | 2.1 | 2.1 | |||
| 2010-01-01T00:00 | 1117 | 866 | 2.0 | 2.0 | |||
| 2010-01-01T00:00 | 1122 | 866 | 2.0 | 2.0 | 253 | 2 | |
| 2010-01-01T00:00 | 1136 | 864 | 1.9 | 1.9 | |||
| 2010-01-01T00:00 | 1144 | 864 | 1.8 | 1.8 | |||
| 2010-01-01T00:00 | 1148 | 863 | 1.8 | 1.8 | |||
| 2010-01-01T00:00 | 1165 | 861 | 1.7 | 1.7 | 247 | 2 | |
| 2010-01-01T00:00 | 1170 | 861 | 1.7 | 1.7 | |||
| 2010-01-01T00:00 | 1179 | 860 | 1.6 | 1.6 | |||
| 2010-01-01T00:00 | 1183 | 859 | 1.6 | 1.5 | |||
| 2010-01-01T00:00 | 1202 | 857 | 1.5 | 1.5 | |||
| 2010-01-01T00:00 | 1212 | 856 | 1.4 | 1.4 | 244 | 3 | |
| 2010-01-01T00:00 | 1217 | 856 | 1.3 | 1.3 | |||
| 2010-01-01T00:00 | 1239 | 853 | 1.2 | 1.2 | |||
| 2010-01-01T00:00 | 1246 | 853 | 1.1 | 1.1 | |||
| 2010-01-01T00:00 | 1249 | 852 | 1.1 | 1.1 | |||
| 2010-01-01T00:00 | 1254 | 852 | 1.1 | 1.0 | 242 | 4 | |
| 2010-01-01T00:00 | 1270 | 850 | 1.0 | 1.0 | |||
| 2010-01-01T00:00 | 1272 | 850 | 1.0 | 1.0 | |||
| 2010-01-01T00:00 | 1285 | 849 | 0.9 | 0.8 | |||
| 2010-01-01T00:00 | 1293 | 848 | 0.7 | 0.7 | |||
| 2010-01-01T00:00 | 1321 | 845 | 0.9 | 0.9 | 241 | 4 | |
| 2010-01-01T00:00 | 1329 | 844 | 0.9 | 0.9 | |||
| 2010-01-01T00:00 | 1342 | 843 | 1.7 | 1.3 | |||
| 2010-01-01T00:00 | 1348 | 842 | 1.6 | 1.3 | |||
| 2010-01-01T00:00 | 1368 | 840 | 1.6 | 1.5 | |||
| 2010-01-01T00:00 | 1374 | 839 | 1.6 | 1.6 | 240 | 5 | |
| 2010-01-01T00:00 | 1377 | 839 | 1.5 | 1.5 | |||
| 2010-01-01T00:00 | 1391 | 838 | 1.5 | 1.5 | |||
| 2010-01-01T00:00 | 1398 | 837 | 1.4 | 1.4 | |||
| 2010-01-01T00:00 | 1401 | 836 | 1.3 | 1.3 | |||
| 2010-01-01T00:00 | 1410 | 836 | 1.2 | 1.2 | 239 | 6 | |
| 2010-01-01T00:00 | 1422 | 834 | 1.1 | 1.1 | |||
| 2010-01-01T00:00 | 1431 | 833 | 0.9 | 0.9 | |||
| 2010-01-01T00:00 | 1436 | 833 | 0.8 | 0.8 | |||
| 2010-01-01T00:00 | 1454 | 831 | 0.6 | 0.6 | 236 | 6 | |
| 2010-01-01T00:00 | 1463 | 830 | 0.6 | 0.6 | |||
| 2010-01-01T00:00 | 1467 | 830 | 0.5 | 0.5 | |||
| 2010-01-01T00:00 | 1491 | 827 | 0.3 | 0.3 | |||
| 2010-01-01T00:00 | 1502 | 826 | 0.3 | 0.2 | 232 | 6 | |
| 2010-01-01T00:00 | 1508 | 825 | 0.2 | 0.2 | |||
| 2010-01-01T00:00 | 1524 | 824 | 0.2 | 0.1 | |||
| 2010-01-01T00:00 | 1529 | 823 | 0.1 | 0.0 | |||
| 2010-01-01T00:00 | 1532 | 823 | 0.1 | 0.0 | |||
| 2010-01-01T00:00 | 1539 | 822 | 0.0 | -0.1 | 229 | 5 | |
| 2010-01-01T00:00 | 1549 | 821 | -0.2 | -0.3 | |||
| 2010-01-01T00:00 | 1558 | 820 | -0.2 | -0.3 | |||
| 2010-01-01T00:00 | 1563 | 820 | -0.3 | -0.4 | |||
| 2010-01-01T00:00 | 1583 | 818 | -0.4 | -0.5 | 230 | 5 | |
| 2010-01-01T00:00 | 1593 | 817 | -0.5 | -0.7 | |||
| 2010-01-01T00:00 | 1599 | 816 | -0.6 | -0.8 | |||
| 2010-01-01T00:00 | 1625 | 813 | -0.7 | -0.9 | |||
| 2010-01-01T00:00 | 1635 | 812 | -0.7 | -0.9 | 232 | 5 | |
| 2010-01-01T00:00 | 1640 | 812 | -0.8 | -1.0 | |||
| 2010-01-01T00:00 | 1659 | 810 | -0.9 | -1.1 | |||
| 2010-01-01T00:00 | 1666 | 809 | -1.0 | -1.2 | |||
| 2010-01-01T00:00 | 1670 | 809 | -1.0 | -1.3 | |||
| 2010-01-01T00:00 | 1679 | 808 | -1.1 | -1.3 | 240 | 4 | |
| 2010-01-01T00:00 | 1692 | 807 | -1.1 | -1.3 | |||
| 2010-01-01T00:00 | 1703 | 806 | -1.2 | -1.4 | |||
| 2010-01-01T00:00 | 1708 | 805 | -1.3 | -1.5 | |||
| 2010-01-01T00:00 | 1729 | 803 | -1.4 | -1.6 | 248 | 5 | |
| 2010-01-01T00:00 | 1740 | 802 | -1.5 | -1.7 | |||
| 2010-01-01T00:00 | 1746 | 801 | -1.5 | -1.8 | |||
| 2010-01-01T00:00 | 1758 | 800 | -1.5 | -1.8 | |||
| 2010-01-01T00:00 | 1771 | 799 | -1.6 | -1.8 | |||
| 2010-01-01T00:00 | 1780 | 798 | -1.6 | -1.9 | 252 | 5 | |
| 2010-01-01T00:00 | 1785 | 797 | -1.7 | -2.0 | |||
| 2010-01-01T00:00 | 1799 | 796 | -1.8 | -2.1 | |||
| 2010-01-01T00:00 | 1804 | 795 | -2.0 | -2.3 | |||
| 2010-01-01T00:00 | 1807 | 795 | -2.1 | -2.3 | |||
| 2010-01-01T00:00 | 1813 | 794 | -2.1 | -2.4 | 252 | 6 | |
| 2010-01-01T00:00 | 1823 | 794 | -2.2 | -2.5 | |||
| 2010-01-01T00:00 | 1831 | 793 | -2.2 | -2.5 | |||
| 2010-01-01T00:00 | 1835 | 792 | -2.3 | -2.6 | |||
| 2010-01-01T00:00 | 1852 | 791 | -2.5 | -2.8 | 250 | 7 | |
| 2010-01-01T00:00 | 1861 | 790 | -2.5 | -2.9 | |||
| 2010-01-01T00:00 | 1865 | 789 | -2.6 | -3.0 | |||
| 2010-01-01T00:00 | 1891 | 787 | -2.7 | -3.1 | |||
| 2010-01-01T00:00 | 1904 | 785 | -2.8 | -3.2 | 247 | 8 | |
| 2010-01-01T00:00 | 1910 | 785 | -2.8 | -3.3 | |||
| 2010-01-01T00:00 | 1930 | 783 | -2.9 | -3.4 | |||
| 2010-01-01T00:00 | 1938 | 782 | -3.0 | -3.5 | |||
| 2010-01-01T00:00 | 1942 | 782 | -3.1 | -3.6 | |||
| 2010-01-01T00:00 | 1950 | 781 | -3.1 | -3.7 | 244 | 9 | |
| 2010-01-01T00:00 | 1962 | 780 | -3.1 | -3.7 | |||
| 2010-01-01T00:00 | 1970 | 779 | -3.2 | -3.8 | |||
| 2010-01-01T00:00 | 1973 | 779 | -3.3 | -3.9 | |||
| 2010-01-01T00:00 | 1991 | 777 | -3.3 | -4.0 | 242 | 9 | |
| 2010-01-01T00:00 | 2000 | 776 | -3.4 | -4.1 | |||
| 2010-01-01T00:00 | 2005 | 775 | -3.5 | -4.2 | |||
| 2010-01-01T00:00 | 2031 | 773 | -3.5 | -4.3 | |||
| 2010-01-01T00:00 | 2043 | 772 | -3.6 | -4.4 | 241 | 10 | |
| 2010-01-01T00:00 | 2049 | 771 | -3.7 | -4.5 | |||
| 2010-01-01T00:00 | 2067 | 769 | -3.7 | -4.6 | |||
| 2010-01-01T00:00 | 2074 | 769 | -3.8 | -4.7 | |||
| 2010-01-01T00:00 | 2077 | 768 | -3.9 | -4.8 | |||
| 2010-01-01T00:00 | 2084 | 768 | -3.9 | -4.8 | 241 | 10 | |
| 2010-01-01T00:00 | 2095 | 767 | -3.9 | -4.9 | |||
| 2010-01-01T00:00 | 2103 | 766 | -4.0 | -5.0 | |||
| 2010-01-01T00:00 | 2107 | 765 | -4.1 | -5.1 | |||
| 2010-01-01T00:00 | 2128 | 764 | -4.1 | -5.2 | 242 | 9 | |
| 2010-01-01T00:00 | 2140 | 762 | -4.2 | -5.3 | |||
| 2010-01-01T00:00 | 2146 | 762 | -4.2 | -5.4 | |||
| 2010-01-01T00:00 | 2174 | 759 | -4.3 | -5.5 | |||
| 2010-01-01T00:00 | 2183 | 758 | -4.4 | -5.6 | 244 | 9 | |
| 2010-01-01T00:00 | 2187 | 758 | -4.4 | -5.7 | |||
| 2010-01-01T00:00 | 2205 | 756 | -4.5 | -5.7 | |||
| 2010-01-01T00:00 | 2213 | 755 | -4.5 | -5.8 | |||
| 2010-01-01T00:00 | 2217 | 755 | -4.6 | -5.8 | |||
| 2010-01-01T00:00 | 2224 | 754 | -4.6 | -5.9 | 245 | 9 | |
| 2010-01-01T00:00 | 2236 | 753 | -4.6 | -5.9 | |||
| 2010-01-01T00:00 | 2244 | 752 | -4.7 | -6.0 | |||
| 2010-01-01T00:00 | 2247 | 752 | -4.8 | -6.1 | |||
| 2010-01-01T00:00 | 2265 | 750 | -4.8 | -6.1 | 245 | 8 | |
| 2010-01-01T00:00 | 2269 | 750 | -4.8 | -6.2 | |||
| 2010-01-01T00:00 | 2279 | 749 | -4.9 | -6.2 | |||
| 2010-01-01T00:00 | 2284 | 748 | -4.9 | -6.3 | |||
| 2010-01-01T00:00 | 2302 | 747 | -5.0 | -6.3 | |||
| 2010-01-01T00:00 | 2310 | 746 | -5.0 | -6.4 | 244 | 8 | |
| 2010-01-01T00:00 | 2314 | 746 | -5.2 | -6.6 | |||
| 2010-01-01T00:00 | 2336 | 744 | -5.2 | -6.7 | |||
| 2010-01-01T00:00 | 2347 | 743 | -5.2 | -6.8 | |||
| 2010-01-01T00:00 | 2352 | 742 | -5.3 | -6.8 | |||
| 2010-01-01T00:00 | 2357 | 742 | -5.3 | -6.9 | 243 | 7 | |
| 2010-01-01T00:00 | 2372 | 740 | -5.4 | -7.1 | |||
| 2010-01-01T00:00 | 2381 | 739 | -5.5 | -7.2 | |||
| 2010-01-01T00:00 | 2385 | 739 | -5.6 | -7.3 | |||
| 2010-01-01T00:00 | 2400 | 738 | -5.8 | -7.6 | 241 | 7 | |
| 2010-01-01T00:00 | 2403 | 737 | -5.8 | -7.7 | |||
| 2010-01-01T00:00 | 2407 | 737 | -5.9 | -7.7 | |||
| 2010-01-01T00:00 | 2410 | 737 | -6.0 | -7.8 | |||
| 2010-01-01T00:00 | 2429 | 735 | -5.8 | -7.8 | |||
| 2010-01-01T00:00 | 2435 | 734 | -5.8 | -7.8 | 238 | 7 | |
| 2010-01-01T00:00 | 2441 | 734 | -5.8 | -7.8 | |||
| 2010-01-01T00:00 | 2447 | 733 | -5.8 | -7.9 | |||
| 2010-01-01T00:00 | 2466 | 731 | -5.8 | -8.0 | |||
| 2010-01-01T00:00 | 2471 | 731 | -5.8 | -8.0 | |||
| 2010-01-01T00:00 | 2474 | 731 | -5.9 | -8.1 | |||
| 2010-01-01T00:00 | 2478 | 730 | -5.9 | -8.1 | 235 | 7 | |
| 2010-01-01T00:00 | 2491 | 729 | -5.8 | -8.1 | |||
| 2010-01-01T00:00 | 2500 | 728 | -5.8 | -8.2 | |||
| 2010-01-01T00:00 | 2504 | 728 | -5.9 | -8.2 | |||
| 2010-01-01T00:00 | 2518 | 727 | -5.8 | -8.2 | 234 | 7 | |
| 2010-01-01T00:00 | 2523 | 726 | -5.8 | -8.2 | |||
| 2010-01-01T00:00 | 2532 | 725 | -5.8 | -8.2 | |||
| 2010-01-01T00:00 | 2536 | 725 | -5.9 | -8.3 | |||
| 2010-01-01T00:00 | 2558 | 723 | -6.0 | -8.4 | |||
| 2010-01-01T00:00 | 2561 | 723 | -6.0 | -8.4 | 232 | 7 | |
| 2010-01-01T00:00 | 2565 | 722 | -6.0 | -8.4 | |||
| 2010-01-01T00:00 | 2569 | 722 | -6.1 | -8.5 | |||
| 2010-01-01T00:00 | 2592 | 720 | -6.2 | -8.6 | |||
| 2010-01-01T00:00 | 2605 | 719 | -6.2 | -8.7 | |||
| 2010-01-01T00:00 | 2611 | 718 | -6.3 | -8.7 | 231 | 7 | |
| 2010-01-01T00:00 | 2629 | 716 | -6.3 | -8.7 | |||
| 2010-01-01T00:00 | 2635 | 716 | -6.4 | -8.8 | |||
| 2010-01-01T00:00 | 2638 | 715 | -6.5 | -8.9 | |||
| 2010-01-01T00:00 | 2650 | 714 | -6.6 | -9.0 | 231 | 7 | |
| 2010-01-01T00:00 | 2658 | 714 | -6.6 | -9.0 | |||
| 2010-01-01T00:00 | 2670 | 713 | -6.6 | -9.1 | |||
| 2010-01-01T00:00 | 2675 | 712 | -6.7 | -9.2 | |||
| 2010-01-01T00:00 | 2694 | 710 | -6.8 | -9.3 | |||
| 2010-01-01T00:00 | 2697 | 710 | -6.9 | -9.3 | 232 | 6 | |
| 2010-01-01T00:00 | 2700 | 710 | -6.9 | -9.4 | |||
| 2010-01-01T00:00 | 2704 | 709 | -7.0 | -9.4 | |||
| 2010-01-01T00:00 | 2723 | 708 | -6.9 | -9.4 | |||
| 2010-01-01T00:00 | 2732 | 707 | -7.0 | -9.5 | |||
| 2010-01-01T00:00 | 2736 | 707 | -7.1 | -9.6 | 234 | 7 | |
| 2010-01-01T00:00 | 2759 | 705 | -7.2 | -9.8 | |||
| 2010-01-01T00:00 | 2768 | 704 | -7.3 | -9.9 | |||
| 2010-01-01T00:00 | 2773 | 703 | -7.3 | -10.0 | |||
| 2010-01-01T00:00 | 2781 | 703 | -7.4 | -10.0 | 236 | 7 | |
| 2010-01-01T00:00 | 2788 | 702 | -7.4 | -10.1 | |||
| 2010-01-01T00:00 | 2793 | 701 | -7.4 | -10.1 | |||
| 2010-01-01T00:00 | 2796 | 701 | -7.4 | -10.2 | |||
| 2010-01-01T00:00 | 2809 | 700 | -7.4 | -10.2 | |||
| 2010-01-01T00:00 | 2813 | 700 | -7.4 | -10.2 | 239 | 7 | |
| 2010-01-01T00:00 | 2823 | 699 | -7.5 | -10.3 | |||
| 2010-01-01T00:00 | 2828 | 698 | -7.5 | -10.4 | |||
| 2010-01-01T00:00 | 2847 | 697 | -7.6 | -10.5 | |||
| 2010-01-01T00:00 | 2855 | 696 | -7.7 | -10.6 | |||
| 2010-01-01T00:00 | 2860 | 695 | -7.7 | -10.6 | 242 | 8 | |
| 2010-01-01T00:00 | 2881 | 694 | -7.9 | -10.8 | |||
| 2010-01-01T00:00 | 2889 | 693 | -7.9 | -10.8 | |||
| 2010-01-01T00:00 | 2893 | 692 | -8.0 | -10.9 | |||
| 2010-01-01T00:00 | 2901 | 692 | -8.1 | -10.9 | 245 | 9 | |
| 2010-01-01T00:00 | 2915 | 691 | -8.1 | -11.0 | |||
| 2010-01-01T00:00 | 2925 | 690 | -8.2 | -11.0 | |||
| 2010-01-01T00:00 | 2930 | 689 | -8.3 | -11.1 | |||
| 2010-01-01T00:00 | 2946 | 688 | -8.4 | -11.1 | 246 | 9 | |
| 2010-01-01T00:00 | 2953 | 687 | -8.5 | -11.2 | |||
| 2010-01-01T00:00 | 2956 | 687 | -8.6 | -11.3 | |||
| 2010-01-01T00:00 | 2973 | 685 | -8.7 | -11.3 | |||
| 2010-01-01T00:00 | 2980 | 685 | -8.7 | -11.3 | 247 | 9 | |
| 2010-01-01T00:00 | 2984 | 684 | -8.8 | -11.4 | |||
| 2010-01-01T00:00 | 3006 | 682 | -8.8 | -11.3 | |||
| 2010-01-01T00:00 | 3017 | 681 | -8.8 | -11.3 | |||
| 2010-01-01T00:00 | 3023 | 681 | -8.9 | -11.3 | |||
| 2010-01-01T00:00 | 3029 | 680 | -8.9 | -11.3 | 246 | 9 | |
| 2010-01-01T00:00 | 3047 | 679 | -9.0 | -11.3 | |||
| 2010-01-01T00:00 | 3060 | 678 | -9.1 | -11.4 | |||
| 2010-01-01T00:00 | 3067 | 677 | -9.1 | -11.5 | |||
| 2010-01-01T00:00 | 3087 | 675 | -9.3 | -11.7 | 244 | 9 | |
| 2010-01-01T00:00 | 3092 | 675 | -9.3 | -11.7 | |||
| 2010-01-01T00:00 | 3098 | 674 | -9.4 | -11.8 | |||
| 2010-01-01T00:00 | 3101 | 674 | -9.5 | -11.9 | |||
| 2010-01-01T00:00 | 3119 | 673 | -9.6 | -12.1 | |||
| 2010-01-01T00:00 | 3124 | 672 | -9.6 | -12.2 | 241 | 9 | |
| 2010-01-01T00:00 | 3128 | 672 | -9.6 | -12.2 | |||
| 2010-01-01T00:00 | 3133 | 671 | -9.7 | -12.4 | |||
| 2010-01-01T00:00 | 3153 | 670 | -9.6 | -12.5 | |||
| 2010-01-01T00:00 | 3164 | 669 | -9.7 | -12.6 | |||
| 2010-01-01T00:00 | 3169 | 668 | -9.7 | -12.7 | |||
| 2010-01-01T00:00 | 3173 | 668 | -9.7 | -12.7 | 239 | 8 | |
| 2010-01-01T00:00 | 3192 | 666 | -9.7 | -13.0 | |||
| 2010-01-01T00:00 | 3199 | 666 | -9.8 | -13.1 | |||
| 2010-01-01T00:00 | 3203 | 665 | -9.9 | -13.2 | |||
| 2010-01-01T00:00 | 3215 | 664 | -9.8 | -13.3 | 238 | 8 | |
| 2010-01-01T00:00 | 3223 | 664 | -9.7 | -13.4 | |||
| 2010-01-01T00:00 | 3233 | 663 | -9.7 | -13.5 | |||
| 2010-01-01T00:00 | 3238 | 662 | -9.8 | -13.6 | |||
| 2010-01-01T00:00 | 3256 | 661 | -9.9 | -13.9 | |||
| 2010-01-01T00:00 | 3265 | 660 | -9.9 | -14.0 | |||
| 2010-01-01T00:00 | 3269 | 660 | -10.0 | -14.1 | |||
| 2010-01-01T00:00 | 3286 | 658 | -10.1 | -14.3 | |||
| 2010-01-01T00:00 | 3291 | 658 | -10.1 | -14.4 | |||
| 2010-01-01T00:00 | 3293 | 658 | -10.2 | -14.5 | |||
| 2010-01-01T00:00 | 3314 | 656 | -10.3 | -14.7 | |||
| 2010-01-01T00:00 | 3327 | 655 | -10.3 | -14.7 | |||
| 2010-01-01T00:00 | 3334 | 654 | -10.4 | -14.8 | |||
| 2010-01-01T00:00 | 3358 | 652 | -10.4 | -14.8 | |||
| 2010-01-01T00:00 | 3368 | 651 | -10.4 | -14.8 | |||
| 2010-01-01T00:00 | 3372 | 651 | -10.5 | -14.8 | |||
| 2010-01-01T00:00 | 3393 | 649 | -10.5 | -14.7 | |||
| 2010-01-01T00:00 | 3399 | 649 | -10.6 | -14.8 | |||
| 2010-01-01T00:00 | 3402 | 648 | -10.6 | -14.8 | |||
| 2010-01-01T00:00 | 3417 | 647 | -10.7 | -14.8 | |||
| 2010-01-01T00:00 | 3424 | 646 | -10.8 | -14.8 | |||
| 2010-01-01T00:00 | 3427 | 646 | -10.8 | -14.9 | |||
| 2010-01-01T00:00 | 3450 | 644 | -11.0 | -14.9 | |||
| 2010-01-01T00:00 | 3462 | 643 | -11.1 | -14.9 | |||
| 2010-01-01T00:00 | 3468 | 643 | -11.2 | -15.0 | |||
| 2010-01-01T00:00 | 3474 | 642 | -11.2 | -15.0 | 241 | 10 | |
| 2010-01-01T00:00 | 3491 | 641 | -11.3 | -15.1 | |||
| 2010-01-01T00:00 | 3502 | 640 | -11.4 | -15.1 | |||
| 2010-01-01T00:00 | 3507 | 640 | -11.5 | -15.2 | |||
| 2010-01-01T00:00 | 3530 | 638 | -11.5 | -15.2 | |||
| 2010-01-01T00:00 | 3537 | 637 | -11.6 | -15.3 | |||
| 2010-01-01T00:00 | 3541 | 637 | -11.6 | -15.3 | |||
| 2010-01-01T00:00 | 3562 | 635 | -11.7 | -15.4 | |||
| 2010-01-01T00:00 | 3572 | 634 | -11.8 | -15.5 | |||
| 2010-01-01T00:00 | 3577 | 634 | -11.9 | -15.6 | |||
| 2010-01-01T00:00 | 3597 | 632 | -12.0 | -15.7 | |||
| 2010-01-01T00:00 | 3608 | 631 | -12.1 | -15.8 | |||
| 2010-01-01T00:00 | 3614 | 631 | -12.1 | -15.9 | |||
| 2010-01-01T00:00 | 3642 | 628 | -12.2 | -16.0 | |||
| 2010-01-01T00:00 | 3653 | 627 | -12.3 | -16.1 | |||
| 2010-01-01T00:00 | 3658 | 627 | -12.4 | -16.3 | |||
| 2010-01-01T00:00 | 3682 | 625 | -12.5 | -16.5 | |||
| 2010-01-01T00:00 | 3690 | 624 | -12.5 | -16.5 | |||
| 2010-01-01T00:00 | 3693 | 624 | -12.6 | -16.7 | |||
| 2010-01-01T00:00 | 3716 | 622 | -12.6 | -16.8 | |||
| 2010-01-01T00:00 | 3727 | 621 | -12.6 | -16.9 | |||
| 2010-01-01T00:00 | 3733 | 621 | -12.7 | -17.0 | |||
| 2010-01-01T00:00 | 3752 | 619 | -12.7 | -17.1 | |||
| 2010-01-01T00:00 | 3759 | 619 | -12.8 | -17.3 | |||
| 2010-01-01T00:00 | 3762 | 619 | -12.9 | -17.4 | 251 | 9 | |
| 2010-01-01T00:00 | 3780 | 617 | -12.9 | -17.5 | |||
| 2010-01-01T00:00 | 3787 | 616 | -13.0 | -17.6 | |||
| 2010-01-01T00:00 | 3791 | 616 | -13.1 | -17.7 | |||
| 2010-01-01T00:00 | 3814 | 614 | -13.1 | -17.9 | |||
| 2010-01-01T00:00 | 3827 | 613 | -13.2 | -18.0 | |||
| 2010-01-01T00:00 | 3833 | 613 | -13.3 | -18.1 | |||
| 2010-01-01T00:00 | 3855 | 611 | -13.3 | -18.1 | |||
| 2010-01-01T00:00 | 3865 | 610 | -13.3 | -18.1 | |||
| 2010-01-01T00:00 | 3870 | 610 | -13.4 | -18.2 | |||
| 2010-01-01T00:00 | 3895 | 608 | -13.5 | -18.3 | |||
| 2010-01-01T00:00 | 3905 | 607 | -13.5 | -18.3 | |||
| 2010-01-01T00:00 | 3910 | 607 | -13.7 | -18.4 | |||
| 2010-01-01T00:00 | 3931 | 605 | -13.9 | -18.5 | |||
| 2010-01-01T00:00 | 3937 | 605 | -13.9 | -18.5 | |||
| 2010-01-01T00:00 | 3940 | 604 | -14.0 | -18.6 | |||
| 2010-01-01T00:00 | 3959 | 603 | -14.2 | -18.6 | |||
| 2010-01-01T00:00 | 3970 | 602 | -14.3 | -18.7 | |||
| 2010-01-01T00:00 | 3975 | 601 | -14.3 | -18.7 | |||
| 2010-01-01T00:00 | 3994 | 600 | -14.4 | -18.7 | |||
| 2010-01-01T00:00 | 4001 | 599 | -14.4 | -18.6 | |||
| 2010-01-01T00:00 | 4010 | 599 | -14.5 | -18.7 | |||
| 2010-01-01T00:00 | 4015 | 598 | -14.6 | -18.7 | |||
| 2010-01-01T00:00 | 4034 | 597 | -14.7 | -18.7 | |||
| 2010-01-01T00:00 | 4040 | 596 | -14.8 | -18.7 | 262 | 10 | |
| 2010-01-01T00:00 | 4045 | 596 | -14.8 | -18.7 | |||
| 2010-01-01T00:00 | 4050 | 596 | -14.9 | -18.8 | |||
| 2010-01-01T00:00 | 4076 | 594 | -15.0 | -18.8 | |||
| 2010-01-01T00:00 | 4087 | 593 | -15.1 | -18.9 | |||
| 2010-01-01T00:00 | 4093 | 592 | -15.2 | -19.0 | |||
| 2010-01-01T00:00 | 4115 | 590 | -15.3 | -19.0 | |||
| 2010-01-01T00:00 | 4121 | 590 | -15.4 | -19.1 | |||
| 2010-01-01T00:00 | 4124 | 590 | -15.5 | -19.2 | |||
| 2010-01-01T00:00 | 4145 | 588 | -15.6 | -19.2 | |||
| 2010-01-01T00:00 | 4158 | 587 | -15.7 | -19.3 | |||
| 2010-01-01T00:00 | 4164 | 587 | -15.7 | -19.3 | |||
| 2010-01-01T00:00 | 4182 | 585 | -15.9 | -19.5 | |||
| 2010-01-01T00:00 | 4188 | 585 | -15.9 | -19.5 | |||
| 2010-01-01T00:00 | 4190 | 585 | -16.0 | -19.6 | |||
| 2010-01-01T00:00 | 4207 | 583 | -16.1 | -19.7 | |||
| 2010-01-01T00:00 | 4215 | 583 | -16.2 | -19.7 | |||
| 2010-01-01T00:00 | 4219 | 582 | -16.3 | -19.8 | |||
| 2010-01-01T00:00 | 4237 | 581 | -16.4 | -19.9 | |||
| 2010-01-01T00:00 | 4242 | 581 | -16.4 | -19.9 | |||
| 2010-01-01T00:00 | 4244 | 580 | -16.6 | -20.0 | |||
| 2010-01-01T00:00 | 4266 | 579 | -16.6 | -20.0 | |||
| 2010-01-01T00:00 | 4280 | 578 | -16.7 | -20.1 | |||
| 2010-01-01T00:00 | 4286 | 577 | -16.8 | -20.1 | |||
| 2010-01-01T00:00 | 4304 | 576 | -16.8 | -20.1 | 259 | 11 | |
| 2010-01-01T00:00 | 4315 | 575 | -16.9 | -20.2 | |||
| 2010-01-01T00:00 | 4323 | 574 | -17.0 | -20.2 | |||
| 2010-01-01T00:00 | 4327 | 574 | -17.0 | -20.3 | |||
| 2010-01-01T00:00 | 4348 | 572 | -17.2 | -20.4 | |||
| 2010-01-01T00:00 | 4358 | 572 | -17.3 | -20.4 | |||
| 2010-01-01T00:00 | 4363 | 571 | -17.4 | -20.5 | |||
| 2010-01-01T00:00 | 4389 | 569 | -17.5 | -20.6 | |||
| 2010-01-01T00:00 | 4400 | 568 | -17.6 | -20.7 | |||
| 2010-01-01T00:00 | 4406 | 568 | -17.7 | -20.8 | |||
| 2010-01-01T00:00 | 4427 | 566 | -17.9 | -20.9 | |||
| 2010-01-01T00:00 | 4436 | 566 | -18.0 | -21.0 | |||
| 2010-01-01T00:00 | 4440 | 565 | -18.0 | -21.0 | |||
| 2010-01-01T00:00 | 4459 | 564 | -18.1 | -21.0 | |||
| 2010-01-01T00:00 | 4465 | 564 | -18.1 | -21.1 | |||
| 2010-01-01T00:00 | 4467 | 563 | -18.2 | -21.2 | |||
| 2010-01-01T00:00 | 4485 | 562 | -18.3 | -21.3 | |||
| 2010-01-01T00:00 | 4495 | 561 | -18.4 | -21.4 | |||
| 2010-01-01T00:00 | 4500 | 561 | -18.5 | -21.5 | |||
| 2010-01-01T00:00 | 4524 | 559 | -18.5 | -21.6 | |||
| 2010-01-01T00:00 | 4533 | 558 | -18.5 | -21.6 | |||
| 2010-01-01T00:00 | 4538 | 558 | -18.6 | -21.7 | |||
| 2010-01-01T00:00 | 4560 | 556 | -18.7 | -21.9 | |||
| 2010-01-01T00:00 | 4568 | 556 | -18.7 | -22.0 | |||
| 2010-01-01T00:00 | 4572 | 556 | -18.9 | -22.1 | 261 | 12 | |
| 2010-01-01T00:00 | 4595 | 554 | -18.9 | -22.4 | |||
| 2010-01-01T00:00 | 4606 | 553 | -18.9 | -22.5 | |||
| 2010-01-01T00:00 | 4611 | 553 | -19.0 | -22.5 | |||
| 2010-01-01T00:00 | 4632 | 551 | -19.1 | -22.8 | |||
| 2010-01-01T00:00 | 4641 | 550 | -19.1 | -22.9 | |||
| 2010-01-01T00:00 | 4646 | 550 | -19.2 | -23.0 | |||
| 2010-01-01T00:00 | 4669 | 548 | -19.2 | -23.2 | |||
| 2010-01-01T00:00 | 4678 | 548 | -19.3 | -23.3 | |||
| 2010-01-01T00:00 | 4682 | 547 | -19.4 | -23.4 | |||
| 2010-01-01T00:00 | 4707 | 546 | -19.5 | -23.6 | |||
| 2010-01-01T00:00 | 4718 | 545 | -19.5 | -23.7 | |||
| 2010-01-01T00:00 | 4724 | 544 | -19.7 | -23.9 | |||
| 2010-01-01T00:00 | 4746 | 543 | -19.8 | -24.1 | |||
| 2010-01-01T00:00 | 4750 | 542 | -19.9 | -24.2 | |||
| 2010-01-01T00:00 | 4752 | 542 | -19.9 | -24.2 | |||
| 2010-01-01T00:00 | 4769 | 541 | -20.0 | -24.4 | |||
| 2010-01-01T00:00 | 4779 | 540 | -20.1 | -24.5 | |||
| 2010-01-01T00:00 | 4784 | 540 | -20.2 | -24.6 | |||
| 2010-01-01T00:00 | 4809 | 538 | -20.3 | -24.8 | |||
| 2010-01-01T00:00 | 4818 | 537 | -20.4 | -24.9 | |||
| 2010-01-01T00:00 | 4823 | 537 | -20.5 | -25.0 | |||
| 2010-01-01T00:00 | 4841 | 536 | -20.6 | -25.1 | 256 | 13 | |
| 2010-01-01T00:00 | 4845 | 536 | -20.7 | -25.2 | |||
| 2010-01-01T00:00 | 4847 | 535 | -20.8 | -25.3 | |||
| 2010-01-01T00:00 | 4866 | 534 | -20.9 | -25.4 | |||
| 2010-01-01T00:00 | 4879 | 533 | -20.9 | -25.5 | |||
| 2010-01-01T00:00 | 4886 | 533 | -21.0 | -25.6 | |||
| 2010-01-01T00:00 | 4905 | 531 | -21.2 | -25.9 | |||
| 2010-01-01T00:00 | 4910 | 531 | -21.3 | -26.0 | |||
| 2010-01-01T00:00 | 4913 | 531 | -21.3 | -26.0 | |||
| 2010-01-01T00:00 | 4934 | 529 | -21.4 | -26.2 | |||
| 2010-01-01T00:00 | 4946 | 528 | -21.5 | -26.3 | |||
| 2010-01-01T00:00 | 4953 | 528 | -21.6 | -26.5 | |||
| 2010-01-01T00:00 | 4981 | 526 | -21.7 | -26.7 | |||
| 2010-01-01T00:00 | 4991 | 525 | -21.8 | -26.9 | |||
| 2010-01-01T00:00 | 4995 | 525 | -22.0 | -27.0 | |||
| 2010-01-01T00:00 | 5019 | 523 | -22.0 | -27.1 | |||
| 2010-01-01T00:00 | 5028 | 522 | -22.0 | -27.2 | |||
| 2010-01-01T00:00 | 5033 | 522 | -22.1 | -27.3 | |||
| 2010-01-01T00:00 | 5052 | 521 | -22.2 | -27.4 | |||
| 2010-01-01T00:00 | 5057 | 520 | -22.3 | -27.5 | |||
| 2010-01-01T00:00 | 5060 | 520 | -22.4 | -27.6 | |||
| 2010-01-01T00:00 | 5077 | 519 | -22.5 | -27.7 | |||
| 2010-01-01T00:00 | 5087 | 518 | -22.6 | -27.7 | |||
| 2010-01-01T00:00 | 5092 | 518 | -22.7 | -27.8 | |||
| 2010-01-01T00:00 | 5102 | 517 | -22.8 | -27.8 | 252 | 15 | |
| 2010-01-01T00:00 | 5116 | 516 | -22.8 | -27.8 | |||
| 2010-01-01T00:00 | 5126 | 515 | -22.9 | -27.8 | |||
| 2010-01-01T00:00 | 5131 | 515 | -23.0 | -27.9 | |||
| 2010-01-01T00:00 | 5155 | 513 | -23.1 | -27.9 | |||
| 2010-01-01T00:00 | 5164 | 513 | -23.2 | -28.0 | |||
| 2010-01-01T00:00 | 5168 | 512 | -23.3 | -28.0 | |||
| 2010-01-01T00:00 | 5188 | 511 | -23.5 | -28.1 | |||
| 2010-01-01T00:00 | 5195 | 511 | -23.5 | -28.1 | |||
| 2010-01-01T00:00 | 5198 | 510 | -23.7 | -28.2 | |||
| 2010-01-01T00:00 | 5219 | 509 | -23.8 | -28.2 | |||
| 2010-01-01T00:00 | 5229 | 508 | -23.9 | -28.3 | |||
| 2010-01-01T00:00 | 5234 | 508 | -23.9 | -28.3 | |||
| 2010-01-01T00:00 | 5261 | 506 | -24.1 | -28.4 | |||
| 2010-01-01T00:00 | 5273 | 505 | -24.3 | -28.5 | |||
| 2010-01-01T00:00 | 5278 | 505 | -24.4 | -28.6 | |||
| 2010-01-01T00:00 | 5304 | 503 | -24.5 | -28.7 | |||
| 2010-01-01T00:00 | 5313 | 502 | -24.6 | -28.8 | |||
| 2010-01-01T00:00 | 5318 | 502 | -24.7 | -28.9 | |||
| 2010-01-01T00:00 | 5343 | 500 | -24.8 | -29.0 | |||
| 2010-01-01T00:00 | 5348 | 500 | -24.9 | -29.1 | |||
| 2010-01-01T00:00 | 5354 | 500 | -24.9 | -29.2 | |||
| 2010-01-01T00:00 | 5359 | 499 | -25.0 | -29.3 | |||
| 2010-01-01T00:00 | 5383 | 498 | -25.2 | -29.5 | |||
| 2010-01-01T00:00 | 5387 | 497 | -25.2 | -29.6 | 248 | 14 | |
| 2010-01-01T00:00 | 5391 | 497 | -25.2 | -29.6 | |||
| 2010-01-01T00:00 | 5395 | 497 | -25.4 | -29.8 | |||
| 2010-01-01T00:00 | 5420 | 495 | -25.5 | -30.1 | |||
| 2010-01-01T00:00 | 5433 | 494 | -25.6 | -30.3 | |||
| 2010-01-01T00:00 | 5440 | 494 | -25.7 | -30.5 | |||
| 2010-01-01T00:00 | 5468 | 492 | -25.9 | -31.0 | |||
| 2010-01-01T00:00 | 5476 | 491 | -26.0 | -31.2 | |||
| 2010-01-01T00:00 | 5480 | 491 | -26.1 | -31.4 | |||
| 2010-01-01T00:00 | 5501 | 490 | -26.2 | -31.8 | |||
| 2010-01-01T00:00 | 5509 | 489 | -26.2 | -31.9 | |||
| 2010-01-01T00:00 | 5513 | 489 | -26.3 | -32.1 | |||
| 2010-01-01T00:00 | 5537 | 487 | -26.5 | -32.7 | |||
| 2010-01-01T00:00 | 5549 | 486 | -26.5 | -32.9 | |||
| 2010-01-01T00:00 | 5555 | 486 | -26.6 | -33.1 | |||
| 2010-01-01T00:00 | 5586 | 484 | -26.6 | -33.4 | |||
| 2010-01-01T00:00 | 5599 | 483 | -26.5 | -33.4 | |||
| 2010-01-01T00:00 | 5606 | 482 | -26.6 | -33.5 | |||
| 2010-01-01T00:00 | 5634 | 481 | -26.7 | -33.7 | |||
| 2010-01-01T00:00 | 5641 | 480 | -26.8 | -33.7 | |||
| 2010-01-01T00:00 | 5645 | 480 | -26.9 | -33.8 | |||
| 2010-01-01T00:00 | 5665 | 479 | -27.0 | -34.0 | |||
| 2010-01-01T00:00 | 5672 | 478 | -27.1 | -34.0 | |||
| 2010-01-01T00:00 | 5676 | 478 | -27.2 | -34.1 | |||
| 2010-01-01T00:00 | 5686 | 477 | -27.2 | -34.2 | 255 | 14 | |
| 2010-01-01T00:00 | 5701 | 476 | -27.3 | -34.2 | |||
| 2010-01-01T00:00 | 5714 | 475 | -27.4 | -34.3 | |||
| 2010-01-01T00:00 | 5720 | 475 | -27.4 | -34.4 | |||
| 2010-01-01T00:00 | 5753 | 473 | -27.5 | -34.5 | |||
| 2010-01-01T00:00 | 5767 | 472 | -27.5 | -34.5 | |||
| 2010-01-01T00:00 | 5773 | 471 | -27.7 | -34.6 | |||
| 2010-01-01T00:00 | 5800 | 470 | -27.9 | -34.8 | |||
| 2010-01-01T00:00 | 5806 | 469 | -27.9 | -34.8 | |||
| 2010-01-01T00:00 | 5809 | 469 | -28.0 | -34.9 | |||
| 2010-01-01T00:00 | 5829 | 468 | -28.2 | -35.0 | |||
| 2010-01-01T00:00 | 5839 | 467 | -28.3 | -35.1 | |||
| 2010-01-01T00:00 | 5844 | 467 | -28.4 | -35.2 | |||
| 2010-01-01T00:00 | 5870 | 465 | -28.5 | -35.2 | |||
| 2010-01-01T00:00 | 5880 | 464 | -28.6 | -35.3 | |||
| 2010-01-01T00:00 | 5885 | 464 | -28.7 | -35.4 | |||
| 2010-01-01T00:00 | 5911 | 462 | -28.8 | -35.5 | |||
| 2010-01-01T00:00 | 5926 | 461 | -28.9 | -35.6 | |||
| 2010-01-01T00:00 | 5932 | 461 | -29.0 | -35.7 | |||
| 2010-01-01T00:00 | 5953 | 460 | -29.2 | -35.9 | |||
| 2010-01-01T00:00 | 5960 | 459 | -29.3 | -36.0 | |||
| 2010-01-01T00:00 | 5963 | 459 | -29.4 | -36.1 | |||
| 2010-01-01T00:00 | 5985 | 458 | -29.5 | -36.3 | 255 | 15 | |
| 2010-01-01T00:00 | 5997 | 457 | -29.6 | -36.4 | |||
| 2010-01-01T00:00 | 6004 | 456 | -29.7 | -36.5 | |||
| 2010-01-01T00:00 | 6030 | 455 | -29.8 | -36.6 | |||
| 2010-01-01T00:00 | 6038 | 454 | -29.9 | -36.7 | |||
| 2010-01-01T00:00 | 6042 | 454 | -30.0 | -36.8 | |||
| 2010-01-01T00:00 | 6062 | 453 | -30.1 | -36.9 | |||
| 2010-01-01T00:00 | 6070 | 452 | -30.2 | -37.0 | |||
| 2010-01-01T00:00 | 6074 | 452 | -30.3 | -37.1 | |||
| 2010-01-01T00:00 | 6095 | 451 | -30.5 | -37.2 | |||
| 2010-01-01T00:00 | 6104 | 450 | -30.5 | -37.3 | |||
| 2010-01-01T00:00 | 6109 | 450 | -30.6 | -37.4 | |||
| 2010-01-01T00:00 | 6136 | 448 | -30.8 | -37.5 | |||
| 2010-01-01T00:00 | 6150 | 447 | -30.8 | -37.6 | |||
| 2010-01-01T00:00 | 6157 | 447 | -31.0 | -37.7 | |||
| 2010-01-01T00:00 | 6190 | 445 | -31.2 | -38.0 | |||
| 2010-01-01T00:00 | 6202 | 444 | -31.5 | -38.2 | |||
| 2010-01-01T00:00 | 6208 | 444 | -31.6 | -38.3 | |||
| 2010-01-01T00:00 | 6235 | 442 | -31.8 | -38.5 | |||
| 2010-01-01T00:00 | 6243 | 441 | -31.9 | -38.6 | |||
| 2010-01-01T00:00 | 6247 | 441 | -32.0 | -38.7 | |||
| 2010-01-01T00:00 | 6271 | 440 | -32.1 | -38.9 | |||
| 2010-01-01T00:00 | 6287 | 439 | -32.2 | -39.0 | |||
| 2010-01-01T00:00 | 6293 | 438 | -32.3 | -39.2 | 263 | 15 | |
| 2010-01-01T00:00 | 6316 | 437 | -32.5 | -39.4 | |||
| 2010-01-01T00:00 | 6322 | 436 | -32.6 | -39.5 | |||
| 2010-01-01T00:00 | 6325 | 436 | -32.7 | -39.6 | |||
| 2010-01-01T00:00 | 6344 | 435 | -32.8 | -39.8 | |||
| 2010-01-01T00:00 | 6355 | 434 | -32.9 | -39.9 | |||
| 2010-01-01T00:00 | 6360 | 434 | -33.0 | -40.0 | |||
| 2010-01-01T00:00 | 6387 | 432 | -33.2 | -40.3 | |||
| 2010-01-01T00:00 | 6398 | 432 | -33.3 | -40.4 | |||
| 2010-01-01T00:00 | 6403 | 431 | -33.3 | -40.4 | |||
| 2010-01-01T00:00 | 6431 | 430 | -33.4 | -40.6 | |||
| 2010-01-01T00:00 | 6442 | 429 | -33.5 | -40.7 | |||
| 2010-01-01T00:00 | 6447 | 429 | -33.6 | -40.8 | |||
| 2010-01-01T00:00 | 6470 | 427 | -33.8 | -41.0 | |||
| 2010-01-01T00:00 | 6477 | 427 | -33.8 | -41.0 | |||
| 2010-01-01T00:00 | 6483 | 427 | -33.9 | -41.2 | |||
| 2010-01-01T00:00 | 6503 | 425 | -34.1 | -41.3 | |||
| 2010-01-01T00:00 | 6512 | 425 | -34.2 | -41.5 | |||
| 2010-01-01T00:00 | 6517 | 424 | -34.3 | -41.6 | |||
| 2010-01-01T00:00 | 6545 | 423 | -34.5 | -41.8 | |||
| 2010-01-01T00:00 | 6558 | 422 | -34.5 | -41.9 | |||
| 2010-01-01T00:00 | 6565 | 422 | -34.6 | -42.0 | |||
| 2010-01-01T00:00 | 6580 | 421 | -34.7 | -42.2 | 265 | 17 | |
| 2010-01-01T00:00 | 6590 | 420 | -34.8 | -42.3 | |||
| 2010-01-01T00:00 | 6595 | 420 | -34.8 | -42.3 | |||
| 2010-01-01T00:00 | 6598 | 420 | -35.0 | -42.4 | |||
| 2010-01-01T00:00 | 6617 | 418 | -35.0 | -42.5 | |||
| 2010-01-01T00:00 | 6629 | 418 | -35.1 | -42.6 | |||
| 2010-01-01T00:00 | 6634 | 417 | -35.2 | -42.8 | |||
| 2010-01-01T00:00 | 6659 | 416 | -35.4 | -43.0 | |||
| 2010-01-01T00:00 | 6666 | 416 | -35.4 | -43.0 | |||
| 2010-01-01T00:00 | 6673 | 415 | -35.5 | -43.1 | |||
| 2010-01-01T00:00 | 6693 | 414 | -35.7 | -43.3 | |||
| 2010-01-01T00:00 | 6703 | 413 | -35.8 | -43.3 | |||
| 2010-01-01T00:00 | 6708 | 413 | -35.9 | -43.4 | |||
| 2010-01-01T00:00 | 6733 | 412 | -36.0 | -43.5 | |||
| 2010-01-01T00:00 | 6742 | 411 | -36.1 | -43.5 | |||
| 2010-01-01T00:00 | 6746 | 411 | -36.2 | -43.6 | |||
| 2010-01-01T00:00 | 6767 | 409 | -36.3 | -43.7 | |||
| 2010-01-01T00:00 | 6775 | 409 | -36.4 | -43.8 | |||
| 2010-01-01T00:00 | 6779 | 409 | -36.5 | -43.9 | |||
| 2010-01-01T00:00 | 6802 | 407 | -36.7 | -44.0 | |||
| 2010-01-01T00:00 | 6812 | 407 | -36.7 | -44.1 | |||
| 2010-01-01T00:00 | 6823 | 406 | -36.8 | -44.2 | |||
| 2010-01-01T00:00 | 6846 | 405 | -36.9 | -44.4 | 257 | 17 | |
| 2010-01-01T00:00 | 6855 | 404 | -37.0 | -44.5 | |||
| 2010-01-01T00:00 | 6859 | 404 | -37.1 | -44.6 | |||
| 2010-01-01T00:00 | 6877 | 403 | -37.3 | -44.8 | |||
| 2010-01-01T00:00 | 6883 | 403 | -37.3 | -44.9 | |||
| 2010-01-01T00:00 | 6886 | 403 | -37.4 | -44.9 | |||
| 2010-01-01T00:00 | 6906 | 401 | -37.5 | -45.1 | |||
| 2010-01-01T00:00 | 6917 | 401 | -37.6 | -45.2 | |||
| 2010-01-01T00:00 | 6922 | 400 | -37.7 | -45.3 | |||
| 2010-01-01T00:00 | 6929 | 400 | -37.8 | -45.4 | |||
| 2010-01-01T00:00 | 6945 | 399 | -37.9 | -45.6 | |||
| 2010-01-01T00:00 | 6951 | 399 | -37.9 | -45.7 | |||
| 2010-01-01T00:00 | 6957 | 398 | -38.0 | -45.8 | |||
| 2010-01-01T00:00 | 6974 | 397 | -38.2 | -46.0 | |||
| 2010-01-01T00:00 | 6982 | 397 | -38.2 | -46.1 | |||
| 2010-01-01T00:00 | 6986 | 397 | -38.3 | -46.2 | |||
| 2010-01-01T00:00 | 7008 | 395 | -38.5 | -46.4 | |||
| 2010-01-01T00:00 | 7018 | 395 | -38.6 | -46.5 | |||
| 2010-01-01T00:00 | 7024 | 395 | -38.7 | -46.6 | |||
| 2010-01-01T00:00 | 7049 | 393 | -38.9 | -46.7 | |||
| 2010-01-01T00:00 | 7060 | 392 | -38.9 | -46.7 | |||
| 2010-01-01T00:00 | 7065 | 392 | -39.0 | -46.8 | |||
| 2010-01-01T00:00 | 7085 | 391 | -39.2 | -47.0 | |||
| 2010-01-01T00:00 | 7094 | 391 | -39.3 | -47.0 | 255 | 16 | |
| 2010-01-01T00:00 | 7097 | 390 | -39.4 | -47.1 | |||
| 2010-01-01T00:00 | 7114 | 389 | -39.6 | -47.1 | |||
| 2010-01-01T00:00 | 7124 | 389 | -39.6 | -47.1 | |||
| 2010-01-01T00:00 | 7129 | 389 | -39.7 | -47.2 | |||
| 2010-01-01T00:00 | 7150 | 387 | -39.9 | -47.3 | |||
| 2010-01-01T00:00 | 7157 | 387 | -40.0 | -47.3 | |||
| 2010-01-01T00:00 | 7161 | 387 | -40.1 | -47.4 | |||
| 2010-01-01T00:00 | 7183 | 385 | -40.2 | -47.6 | |||
| 2010-01-01T00:00 | 7200 | 385 | -40.3 | -47.6 | |||
| 2010-01-01T00:00 | 7206 | 384 | -40.4 | -47.7 | |||
| 2010-01-01T00:00 | 7232 | 383 | -40.5 | -47.9 | |||
| 2010-01-01T00:00 | 7240 | 382 | -40.6 | -47.9 | |||
| 2010-01-01T00:00 | 7244 | 382 | -40.7 | -48.0 | |||
| 2010-01-01T00:00 | 7263 | 381 | -40.9 | -48.2 | |||
| 2010-01-01T00:00 | 7268 | 381 | -40.9 | -48.2 | |||
| 2010-01-01T00:00 | 7271 | 381 | -41.0 | -48.3 | |||
| 2010-01-01T00:00 | 7291 | 379 | -41.2 | -48.5 | |||
| 2010-01-01T00:00 | 7309 | 378 | -41.2 | -48.5 | |||
| 2010-01-01T00:00 | 7315 | 378 | -41.3 | -48.5 | |||
| 2010-01-01T00:00 | 7342 | 377 | -41.4 | -48.6 | |||
| 2010-01-01T00:00 | 7350 | 376 | -41.5 | -48.7 | |||
| 2010-01-01T00:00 | 7354 | 376 | -41.6 | -48.8 | |||
| 2010-01-01T00:00 | 7357 | 376 | -41.6 | -48.8 | 250 | 17 | |
| 2010-01-01T00:00 | 7371 | 375 | -41.7 | -49.0 | |||
| 2010-01-01T00:00 | 7375 | 375 | -41.8 | -49.1 | |||
| 2010-01-01T00:00 | 7378 | 375 | -41.9 | -49.1 | |||
| 2010-01-01T00:00 | 7395 | 374 | -42.0 | -49.3 | |||
| 2010-01-01T00:00 | 7412 | 373 | -42.0 | -49.4 | |||
| 2010-01-01T00:00 | 7417 | 372 | -42.1 | -49.5 | |||
| 2010-01-01T00:00 | 7441 | 371 | -42.3 | -49.8 | |||
| 2010-01-01T00:00 | 7448 | 371 | -42.4 | -49.8 | |||
| 2010-01-01T00:00 | 7452 | 371 | -42.5 | -50.0 | |||
| 2010-01-01T00:00 | 7472 | 369 | -42.6 | -50.1 | |||
| 2010-01-01T00:00 | 7482 | 369 | -42.7 | -50.2 | |||
| 2010-01-01T00:00 | 7487 | 369 | -42.8 | -50.3 | |||
| 2010-01-01T00:00 | 7509 | 367 | -43.0 | -50.6 | |||
| 2010-01-01T00:00 | 7520 | 367 | -43.0 | -50.6 | |||
| 2010-01-01T00:00 | 7524 | 367 | -43.1 | -50.7 | |||
| 2010-01-01T00:00 | 7546 | 365 | -43.3 | -50.9 | |||
| 2010-01-01T00:00 | 7557 | 365 | -43.3 | -51.0 | |||
| 2010-01-01T00:00 | 7563 | 364 | -43.5 | -51.1 | |||
| 2010-01-01T00:00 | 7584 | 363 | -43.6 | -51.2 | |||
| 2010-01-01T00:00 | 7589 | 363 | -43.7 | -51.3 | |||
| 2010-01-01T00:00 | 7593 | 363 | -43.8 | -51.4 | |||
| 2010-01-01T00:00 | 7600 | 362 | -43.8 | -51.4 | 245 | 17 | |
| 2010-01-01T00:00 | 7609 | 362 | -43.9 | -51.5 | |||
| 2010-01-01T00:00 | 7618 | 361 | -44.0 | -51.5 | |||
| 2010-01-01T00:00 | 7623 | 361 | -44.1 | -51.6 | |||
| 2010-01-01T00:00 | 7649 | 360 | -44.3 | -51.7 | |||
| 2010-01-01T00:00 | 7662 | 359 | -44.4 | -51.8 | |||
| 2010-01-01T00:00 | 7668 | 359 | -44.5 | -51.9 | |||
| 2010-01-01T00:00 | 7694 | 357 | -44.7 | -52.0 | |||
| 2010-01-01T00:00 | 7705 | 357 | -44.7 | -52.0 | |||
| 2010-01-01T00:00 | 7708 | 357 | -44.9 | -52.2 | |||
| 2010-01-01T00:00 | 7728 | 356 | -45.0 | -52.3 | |||
| 2010-01-01T00:00 | 7739 | 355 | -45.1 | -52.3 | |||
| 2010-01-01T00:00 | 7744 | 355 | -45.2 | -52.4 | |||
| 2010-01-01T00:00 | 7767 | 354 | -45.3 | -52.5 | |||
| 2010-01-01T00:00 | 7778 | 353 | -45.5 | -52.6 | |||
| 2010-01-01T00:00 | 7782 | 353 | -45.6 | -52.7 | |||
| 2010-01-01T00:00 | 7805 | 352 | -45.7 | -52.8 | |||
| 2010-01-01T00:00 | 7817 | 351 | -45.8 | -52.9 | |||
| 2010-01-01T00:00 | 7823 | 351 | -45.9 | -53.0 | |||
| 2010-01-01T00:00 | 7849 | 349 | -46.1 | -53.2 | |||
| 2010-01-01T00:00 | 7856 | 349 | -46.2 | -53.3 | |||
| 2010-01-01T00:00 | 7863 | 348 | -46.3 | -53.4 | |||
| 2010-01-01T00:00 | 7873 | 348 | -46.4 | -53.5 | 243 | 19 | |
| 2010-01-01T00:00 | 7880 | 348 | -46.4 | -53.5 | |||
| 2010-01-01T00:00 | 7885 | 347 | -46.5 | -53.6 | |||
| 2010-01-01T00:00 | 7887 | 347 | -46.6 | -53.7 | |||
| 2010-01-01T00:00 | 7907 | 346 | -46.8 | -53.9 | |||
| 2010-01-01T00:00 | 7919 | 345 | -46.8 | -53.9 | |||
| 2010-01-01T00:00 | 7925 | 345 | -46.9 | -54.0 | |||
| 2010-01-01T00:00 | 7951 | 344 | -47.1 | -54.2 | |||
| 2010-01-01T00:00 | 7962 | 343 | -47.1 | -54.3 | |||
| 2010-01-01T00:00 | 7966 | 343 | -47.3 | -54.4 | |||
| 2010-01-01T00:00 | 7987 | 342 | -47.4 | -54.5 | |||
| 2010-01-01T00:00 | 7998 | 341 | -47.5 | -54.6 | |||
| 2010-01-01T00:00 | 8003 | 341 | -47.6 | -54.7 | |||
| 2010-01-01T00:00 | 8023 | 340 | -47.8 | -54.9 | |||
| 2010-01-01T00:00 | 8031 | 340 | -47.8 | -54.9 | |||
| 2010-01-01T00:00 | 8034 | 340 | -47.9 | -55.0 | |||
| 2010-01-01T00:00 | 8052 | 339 | -48.1 | -55.2 | |||
| 2010-01-01T00:00 | 8063 | 338 | -48.1 | -55.2 | |||
| 2010-01-01T00:00 | 8069 | 338 | -48.2 | -55.3 | |||
| 2010-01-01T00:00 | 8093 | 336 | -48.3 | -55.5 | |||
| 2010-01-01T00:00 | 8106 | 336 | -48.4 | -55.5 | |||
| 2010-01-01T00:00 | 8110 | 336 | -48.5 | -55.6 | |||
| 2010-01-01T00:00 | 8127 | 335 | -48.7 | -55.8 | 242 | 19 | |
| 2010-01-01T00:00 | 8131 | 335 | -48.7 | -55.8 | |||
| 2010-01-01T00:00 | 8139 | 334 | -48.8 | -55.8 | |||
| 2010-01-01T00:00 | 8143 | 334 | -48.9 | -56.0 | |||
| 2010-01-01T00:00 | 8164 | 333 | -49.0 | -56.0 | |||
| 2010-01-01T00:00 | 8178 | 332 | -49.1 | -56.1 | |||
| 2010-01-01T00:00 | 8182 | 332 | -49.2 | -56.2 | |||
| 2010-01-01T00:00 | 8202 | 331 | -49.3 | -56.4 | |||
| 2010-01-01T00:00 | 8209 | 331 | -49.4 | -56.4 | |||
| 2010-01-01T00:00 | 8212 | 330 | -49.5 | -56.5 | |||
| 2010-01-01T00:00 | 8231 | 330 | -49.6 | -56.7 | |||
| 2010-01-01T00:00 | 8244 | 329 | -49.7 | -56.7 | |||
| 2010-01-01T00:00 | 8248 | 329 | -49.7 | -56.8 | |||
| 2010-01-01T00:00 | 8269 | 328 | -49.9 | -56.9 | |||
| 2010-01-01T00:00 | 8276 | 327 | -49.9 | -57.0 | |||
| 2010-01-01T00:00 | 8280 | 327 | -50.0 | -57.0 | |||
| 2010-01-01T00:00 | 8299 | 326 | -50.2 | -57.2 | |||
| 2010-01-01T00:00 | 8311 | 326 | -50.2 | -57.2 | |||
| 2010-01-01T00:00 | 8315 | 325 | -50.3 | -57.3 | |||
| 2010-01-01T00:00 | 8338 | 324 | -50.5 | -57.5 | |||
| 2010-01-01T00:00 | 8350 | 324 | -50.5 | -57.5 | |||
| 2010-01-01T00:00 | 8355 | 323 | -50.6 | -57.6 | |||
| 2010-01-01T00:00 | 8380 | 322 | -50.8 | -57.8 | 246 | 18 | |
| 2010-01-01T00:00 | 8392 | 321 | -50.9 | -57.9 | |||
| 2010-01-01T00:00 | 8396 | 321 | -51.0 | -58.0 | |||
| 2010-01-01T00:00 | 8415 | 320 | -51.2 | -58.2 | |||
| 2010-01-01T00:00 | 8422 | 320 | -51.2 | -58.2 | |||
| 2010-01-01T00:00 | 8426 | 320 | -51.3 | -58.4 | |||
| 2010-01-01T00:00 | 8445 | 319 | -51.5 | -58.5 | |||
| 2010-01-01T00:00 | 8457 | 318 | -51.5 | -58.6 | |||
| 2010-01-01T00:00 | 8461 | 318 | -51.7 | -58.7 | |||
| 2010-01-01T00:00 | 8479 | 317 | -51.8 | -58.8 | |||
| 2010-01-01T00:00 | 8486 | 317 | -51.9 | -58.9 | |||
| 2010-01-01T00:00 | 8492 | 317 | -52.0 | -59.0 | |||
| 2010-01-01T00:00 | 8517 | 315 | -52.1 | -59.2 | |||
| 2010-01-01T00:00 | 8532 | 315 | -52.2 | -59.2 | |||
| 2010-01-01T00:00 | 8540 | 314 | -52.3 | -59.3 | |||
| 2010-01-01T00:00 | 8565 | 313 | -52.4 | -59.5 | |||
| 2010-01-01T00:00 | 8569 | 313 | -52.5 | -59.6 | |||
| 2010-01-01T00:00 | 8570 | 313 | -52.6 | -59.7 | |||
| 2010-01-01T00:00 | 8586 | 312 | -52.8 | -59.8 | |||
| 2010-01-01T00:00 | 8597 | 311 | -52.8 | -59.9 | |||
| 2010-01-01T00:00 | 8602 | 311 | -52.9 | -60.0 | |||
| 2010-01-01T00:00 | 8622 | 310 | -53.0 | -60.1 | 246 | 18 | |
| 2010-01-01T00:00 | 8626 | 310 | -53.1 | -60.1 | |||
| 2010-01-01T00:00 | 8628 | 310 | -53.2 | -60.2 | |||
| 2010-01-01T00:00 | 8644 | 309 | -53.3 | -60.3 | |||
| 2010-01-01T00:00 | 8656 | 309 | -53.4 | -60.4 | |||
| 2010-01-01T00:00 | 8662 | 308 | -53.5 | -60.5 | |||
| 2010-01-01T00:00 | 8694 | 307 | -53.6 | -60.6 | |||
| 2010-01-01T00:00 | 8716 | 306 | -53.7 | -60.7 | |||
| 2010-01-01T00:00 | 8723 | 305 | -53.8 | -60.8 | |||
| 2010-01-01T00:00 | 8747 | 304 | -54.0 | -61.0 | |||
| 2010-01-01T00:00 | 8749 | 304 | -54.0 | -61.0 | |||
| 2010-01-01T00:00 | 8751 | 304 | -54.1 | -61.1 | |||
| 2010-01-01T00:00 | 8762 | 304 | -54.2 | -61.2 | |||
| 2010-01-01T00:00 | 8770 | 303 | -54.4 | -61.3 | |||
| 2010-01-01T00:00 | 8774 | 303 | -54.5 | -61.4 | |||
| 2010-01-01T00:00 | 8797 | 302 | -54.6 | -61.6 | |||
| 2010-01-01T00:00 | 8813 | 301 | -54.7 | -61.7 | |||
| 2010-01-01T00:00 | 8818 | 301 | -54.8 | -61.7 | |||
| 2010-01-01T00:00 | 8838 | 300 | -54.9 | -61.9 | |||
| 2010-01-01T00:00 | 8842 | 300 | -55.0 | -61.9 | |||
| 2010-01-01T00:00 | 8851 | 299 | -55.0 | -61.9 | |||
| 2010-01-01T00:00 | 8856 | 299 | -55.1 | -62.1 | |||
| 2010-01-01T00:00 | 8877 | 298 | -55.3 | -62.3 | 247 | 19 | |
| 2010-01-01T00:00 | 8888 | 298 | -55.4 | -62.4 | |||
| 2010-01-01T00:00 | 8910 | 297 | -55.7 | -62.6 | |||
| 2010-01-01T00:00 | 8921 | 296 | -55.8 | -62.7 | |||
| 2010-01-01T00:00 | 8925 | 296 | -55.9 | -62.9 | |||
| 2010-01-01T00:00 | 8947 | 295 | -56.1 | -63.0 | |||
| 2010-01-01T00:00 | 8959 | 294 | -56.1 | -63.1 | |||
| 2010-01-01T00:00 | 8964 | 294 | -56.3 | -63.2 | |||
| 2010-01-01T00:00 | 8992 | 293 | -56.5 | -63.5 | |||
| 2010-01-01T00:00 | 9007 | 292 | -56.6 | -63.6 | |||
| 2010-01-01T00:00 | 9013 | 292 | -56.8 | -63.7 | |||
| 2010-01-01T00:00 | 9037 | 291 | -56.9 | -63.9 | |||
| 2010-01-01T00:00 | 9046 | 290 | -57.0 | -63.9 | |||
| 2010-01-01T00:00 | 9054 | 290 | -57.1 | -64.1 | |||
| 2010-01-01T00:00 | 9080 | 289 | -57.3 | -64.2 | |||
| 2010-01-01T00:00 | 9092 | 288 | -57.4 | -64.3 | |||
| 2010-01-01T00:00 | 9098 | 288 | -57.5 | -64.5 | |||
| 2010-01-01T00:00 | 9125 | 287 | -57.7 | -64.6 | |||
| 2010-01-01T00:00 | 9137 | 286 | -57.8 | -64.7 | |||
| 2010-01-01T00:00 | 9141 | 286 | -57.9 | -64.8 | |||
| 2010-01-01T00:00 | 9158 | 285 | -58.0 | -65.0 | 246 | 20 | |
| 2010-01-01T00:00 | 9162 | 285 | -58.1 | -65.0 | |||
| 2010-01-01T00:00 | 9171 | 285 | -58.1 | -65.1 | |||
| 2010-01-01T00:00 | 9180 | 284 | -58.3 | -65.2 | |||
| 2010-01-01T00:00 | 9204 | 283 | -58.4 | -65.3 | |||
| 2010-01-01T00:00 | 9214 | 283 | -58.4 | -65.3 | |||
| 2010-01-01T00:00 | 9219 | 282 | -58.6 | -65.4 | |||
| 2010-01-01T00:00 | 9244 | 281 | -58.7 | -65.6 | |||
| 2010-01-01T00:00 | 9259 | 281 | -58.8 | -65.7 | |||
| 2010-01-01T00:00 | 9264 | 280 | -58.9 | -65.8 | |||
| 2010-01-01T00:00 | 9288 | 279 | -59.1 | -65.9 | |||
| 2010-01-01T00:00 | 9297 | 279 | -59.1 | -66.0 | |||
| 2010-01-01T00:00 | 9306 | 279 | -59.2 | -66.1 | |||
| 2010-01-01T00:00 | 9330 | 278 | -59.3 | -66.2 | |||
| 2010-01-01T00:00 | 9341 | 277 | -59.4 | -66.3 | |||
| 2010-01-01T00:00 | 9346 | 277 | -59.5 | -66.4 | |||
| 2010-01-01T00:00 | 9371 | 276 | -59.7 | -66.6 | |||
| 2010-01-01T00:00 | 9385 | 275 | -59.7 | -66.6 | |||
| 2010-01-01T00:00 | 9389 | 275 | -59.9 | -66.8 | |||
| 2010-01-01T00:00 | 9412 | 274 | -60.0 | -66.9 | |||
| 2010-01-01T00:00 | 9425 | 273 | -60.1 | -67.0 | |||
| 2010-01-01T00:00 | 9429 | 273 | -60.3 | -67.1 | |||
| 2010-01-01T00:00 | 9441 | 273 | -60.3 | -67.2 | 241 | 20 | |
| 2010-01-01T00:00 | 9449 | 272 | -60.4 | -67.3 | |||
| 2010-01-01T00:00 | 9457 | 272 | -60.5 | -67.4 | |||
| 2010-01-01T00:00 | 9465 | 272 | -60.6 | -67.5 | |||
| 2010-01-01T00:00 | 9487 | 271 | -60.7 | -67.7 | |||
| 2010-01-01T00:00 | 9498 | 270 | -60.8 | -67.8 | |||
| 2010-01-01T00:00 | 9503 | 270 | -61.0 | -68.0 | |||
| 2010-01-01T00:00 | 9529 | 269 | -61.0 | -68.1 | |||
| 2010-01-01T00:00 | 9544 | 268 | -61.0 | -68.1 | |||
| 2010-01-01T00:00 | 9549 | 268 | -61.1 | -68.2 | |||
| 2010-01-01T00:00 | 9572 | 267 | -60.8 | -68.1 | |||
| 2010-01-01T00:00 | 9580 | 267 | -60.8 | -68.1 | |||
| 2010-01-01T00:00 | 9587 | 266 | -60.9 | -68.2 | |||
| 2010-01-01T00:00 | 9609 | 265 | -60.7 | -68.0 | |||
| 2010-01-01T00:00 | 9618 | 265 | -60.5 | -67.8 | |||
| 2010-01-01T00:00 | 9623 | 265 | -60.6 | -67.9 | |||
| 2010-01-01T00:00 | 9643 | 264 | -60.6 | -68.0 | |||
| 2010-01-01T00:00 | 9652 | 264 | -60.6 | -68.0 | |||
| 2010-01-01T00:00 | 9654 | 263 | -60.7 | -68.1 | |||
| 2010-01-01T00:00 | 9673 | 263 | -60.8 | -68.1 | |||
| 2010-01-01T00:00 | 9687 | 262 | -60.8 | -68.1 | |||
| 2010-01-01T00:00 | 9692 | 262 | -60.9 | -68.2 | |||
| 2010-01-01T00:00 | 9701 | 261 | -60.9 | -68.2 | 232 | 22 | |
| 2010-01-01T00:00 | 9715 | 261 | -60.8 | -68.1 | |||
| 2010-01-01T00:00 | 9723 | 261 | -60.5 | -67.9 | |||
| 2010-01-01T00:00 | 9731 | 260 | -60.6 | -68.0 | |||
| 2010-01-01T00:00 | 9752 | 259 | -60.7 | -68.0 | |||
| 2010-01-01T00:00 | 9762 | 259 | -60.8 | -68.1 | |||
| 2010-01-01T00:00 | 9767 | 259 | -60.9 | -68.2 | |||
| 2010-01-01T00:00 | 9790 | 258 | -61.0 | -68.3 | |||
| 2010-01-01T00:00 | 9803 | 257 | -61.0 | -68.3 | |||
| 2010-01-01T00:00 | 9808 | 257 | -61.1 | -68.4 | |||
| 2010-01-01T00:00 | 9829 | 256 | -61.0 | -68.3 | |||
| 2010-01-01T00:00 | 9836 | 256 | -61.0 | -68.3 | |||
| 2010-01-01T00:00 | 9843 | 256 | -61.2 | -68.4 | |||
| 2010-01-01T00:00 | 9862 | 255 | -61.2 | -68.5 | |||
| 2010-01-01T00:00 | 9871 | 254 | -61.2 | -68.5 | |||
| 2010-01-01T00:00 | 9875 | 254 | -61.3 | -68.6 | |||
| 2010-01-01T00:00 | 9897 | 253 | -61.3 | -68.6 | |||
| 2010-01-01T00:00 | 9911 | 253 | -61.3 | -68.7 | |||
| 2010-01-01T00:00 | 9915 | 253 | -61.4 | -68.8 | |||
| 2010-01-01T00:00 | 9935 | 252 | -61.4 | -68.8 | |||
| 2010-01-01T00:00 | 9943 | 251 | -61.4 | -68.8 | |||
| 2010-01-01T00:00 | 9946 | 251 | -61.5 | -68.9 | |||
| 2010-01-01T00:00 | 9949 | 251 | -61.5 | -68.9 | 241 | 21 | |
| 2010-01-01T00:00 | 9961 | 251 | -61.4 | -68.9 | |||
| 2010-01-01T00:00 | 9968 | 250 | -61.3 | -68.7 | |||
| 2010-01-01T00:00 | 9976 | 250 | -61.3 | -68.8 | |||
| 2010-01-01T00:00 | 9979 | 250 | -61.2 | -68.7 | |||
| 2010-01-01T00:00 | 9995 | 249 | -61.0 | -68.5 | |||
| 2010-01-01T00:00 | 10003 | 249 | -60.8 | -68.3 | |||
| 2010-01-01T00:00 | 10007 | 249 | -60.8 | -68.4 | |||
| 2010-01-01T00:00 | 10027 | 248 | -60.5 | -68.2 | |||
| 2010-01-01T00:00 | 10039 | 248 | -60.6 | -68.2 | |||
| 2010-01-01T00:00 | 10042 | 247 | -60.7 | -68.3 | |||
| 2010-01-01T00:00 | 10060 | 247 | -60.8 | -68.4 | |||
| 2010-01-01T00:00 | 10066 | 247 | -60.7 | -68.3 | |||
| 2010-01-01T00:00 | 10072 | 246 | -60.5 | -68.2 | |||
| 2010-01-01T00:00 | 10088 | 246 | -60.0 | -67.7 | |||
| 2010-01-01T00:00 | 10094 | 245 | -60.1 | -67.8 | |||
| 2010-01-01T00:00 | 10097 | 245 | -60.2 | -67.9 | |||
| 2010-01-01T00:00 | 10120 | 244 | -60.3 | -68.0 | |||
| 2010-01-01T00:00 | 10140 | 244 | -60.4 | -68.1 | |||
| 2010-01-01T00:00 | 10147 | 243 | -60.6 | -68.2 | |||
| 2010-01-01T00:00 | 10174 | 242 | -60.8 | -68.4 | |||
| 2010-01-01T00:00 | 10182 | 242 | -60.7 | -68.4 | |||
| 2010-01-01T00:00 | 10185 | 242 | -60.8 | -68.5 | 244 | 20 | |
| 2010-01-01T00:00 | 10204 | 241 | -59.8 | -67.5 | |||
| 2010-01-01T00:00 | 10214 | 241 | -59.8 | -67.5 | |||
| 2010-01-01T00:00 | 10220 | 241 | -59.8 | -67.6 | |||
| 2010-01-01T00:00 | 10244 | 240 | -59.8 | -67.6 | |||
| 2010-01-01T00:00 | 10258 | 239 | -59.8 | -67.6 | |||
| 2010-01-01T00:00 | 10263 | 239 | -59.9 | -67.8 | |||
| 2010-01-01T00:00 | 10282 | 238 | -59.9 | -67.8 | |||
| 2010-01-01T00:00 | 10290 | 238 | -59.6 | -67.6 | |||
| 2010-01-01T00:00 | 10293 | 238 | -59.5 | -67.4 | |||
| 2010-01-01T00:00 | 10311 | 237 | -59.2 | -67.2 | |||
| 2010-01-01T00:00 | 10320 | 237 | -59.0 | -67.1 | |||
| 2010-01-01T00:00 | 10325 | 237 | -59.1 | -67.2 | |||
| 2010-01-01T00:00 | 10347 | 236 | -58.7 | -66.8 | |||
| 2010-01-01T00:00 | 10360 | 235 | -58.4 | -66.6 | |||
| 2010-01-01T00:00 | 10364 | 235 | -58.5 | -66.6 | |||
| 2010-01-01T00:00 | 10383 | 234 | -58.2 | -66.3 | |||
| 2010-01-01T00:00 | 10393 | 234 | -58.1 | -66.2 | |||
| 2010-01-01T00:00 | 10396 | 234 | -58.2 | -66.3 | |||
| 2010-01-01T00:00 | 10417 | 233 | -58.1 | -66.2 | |||
| 2010-01-01T00:00 | 10429 | 233 | -58.1 | -66.2 | |||
| 2010-01-01T00:00 | 10434 | 232 | -58.3 | -66.4 | 244 | 21 | |
| 2010-01-01T00:00 | 10457 | 232 | -58.3 | -66.3 | |||
| 2010-01-01T00:00 | 10465 | 231 | -58.2 | -66.3 | |||
| 2010-01-01T00:00 | 10468 | 231 | -58.2 | -66.3 | |||
| 2010-01-01T00:00 | 10486 | 231 | -58.2 | -66.3 | |||
| 2010-01-01T00:00 | 10496 | 230 | -58.2 | -66.3 | |||
| 2010-01-01T00:00 | 10506 | 230 | -58.3 | -66.4 | |||
| 2010-01-01T00:00 | 10532 | 229 | -58.1 | -66.3 | |||
| 2010-01-01T00:00 | 10542 | 228 | -58.0 | -66.2 | |||
| 2010-01-01T00:00 | 10548 | 228 | -58.1 | -66.2 | |||
| 2010-01-01T00:00 | 10571 | 227 | -57.9 | -66.1 | |||
| 2010-01-01T00:00 | 10582 | 227 | -57.8 | -66.1 | |||
| 2010-01-01T00:00 | 10586 | 227 | -57.9 | -66.2 | |||
| 2010-01-01T00:00 | 10605 | 226 | -57.6 | -66.0 | |||
| 2010-01-01T00:00 | 10614 | 226 | -57.5 | -65.9 | |||
| 2010-01-01T00:00 | 10618 | 226 | -57.5 | -65.9 | |||
| 2010-01-01T00:00 | 10637 | 225 | -57.0 | -65.5 | |||
| 2010-01-01T00:00 | 10645 | 225 | -56.7 | -65.2 | |||
| 2010-01-01T00:00 | 10648 | 225 | -56.7 | -65.2 | |||
| 2010-01-01T00:00 | 10667 | 224 | -56.6 | -65.1 | |||
| 2010-01-01T00:00 | 10678 | 224 | -56.5 | -65.0 | |||
| 2010-01-01T00:00 | 10684 | 223 | -56.5 | -65.1 | 249 | 25 | |
| 2010-01-01T00:00 | 10689 | 223 | -56.6 | -65.1 | |||
| 2010-01-01T00:00 | 10714 | 222 | -56.1 | -64.7 | |||
| 2010-01-01T00:00 | 10722 | 222 | -55.9 | -64.5 | |||
| 2010-01-01T00:00 | 10726 | 222 | -56.0 | -64.5 | |||
| 2010-01-01T00:00 | 10744 | 221 | -55.7 | -64.3 | |||
| 2010-01-01T00:00 | 10755 | 221 | -55.7 | -64.2 | |||
| 2010-01-01T00:00 | 10758 | 221 | -55.8 | -64.4 | |||
| 2010-01-01T00:00 | 10780 | 220 | -55.9 | -64.4 | |||
| 2010-01-01T00:00 | 10791 | 220 | -55.9 | -64.3 | |||
| 2010-01-01T00:00 | 10797 | 219 | -55.9 | -64.4 | |||
| 2010-01-01T00:00 | 10820 | 219 | -55.6 | -64.1 | |||
| 2010-01-01T00:00 | 10830 | 218 | -55.7 | -64.1 | |||
| 2010-01-01T00:00 | 10833 | 218 | -55.8 | -64.2 | |||
| 2010-01-01T00:00 | 10853 | 218 | -55.9 | -64.3 | |||
| 2010-01-01T00:00 | 10863 | 217 | -55.9 | -64.3 | |||
| 2010-01-01T00:00 | 10868 | 217 | -56.1 | -64.4 | |||
| 2010-01-01T00:00 | 10893 | 216 | -56.2 | -64.5 | |||
| 2010-01-01T00:00 | 10906 | 216 | -56.2 | -64.5 | |||
| 2010-01-01T00:00 | 10911 | 216 | -56.3 | -64.7 | |||
| 2010-01-01T00:00 | 10929 | 215 | -56.4 | -64.7 | |||
| 2010-01-01T00:00 | 10934 | 215 | -56.2 | -64.6 | |||
| 2010-01-01T00:00 | 10937 | 215 | -56.3 | -64.7 | 251 | 22 | |
| 2010-01-01T00:00 | 10954 | 214 | -56.2 | -64.6 | |||
| 2010-01-01T00:00 | 10968 | 214 | -56.2 | -64.7 | |||
| 2010-01-01T00:00 | 10973 | 213 | -56.3 | -64.8 | |||
| 2010-01-01T00:00 | 10997 | 213 | -56.1 | -64.6 | |||
| 2010-01-01T00:00 | 11006 | 212 | -55.9 | -64.4 | |||
| 2010-01-01T00:00 | 11016 | 212 | -55.9 | -64.5 | |||
| 2010-01-01T00:00 | 11039 | 211 | -55.9 | -64.5 | |||
| 2010-01-01T00:00 | 11049 | 211 | -55.8 | -64.4 | |||
| 2010-01-01T00:00 | 11053 | 211 | -55.9 | -64.5 | |||
| 2010-01-01T00:00 | 11074 | 210 | -55.9 | -64.5 | |||
| 2010-01-01T00:00 | 11085 | 210 | -55.9 | -64.5 | |||
| 2010-01-01T00:00 | 11088 | 210 | -56.0 | -64.6 | |||
| 2010-01-01T00:00 | 11107 | 209 | -55.9 | -64.5 | |||
| 2010-01-01T00:00 | 11115 | 209 | -55.9 | -64.5 | |||
| 2010-01-01T00:00 | 11119 | 209 | -56.0 | -64.6 | |||
| 2010-01-01T00:00 | 11139 | 208 | -56.0 | -64.6 | |||
| 2010-01-01T00:00 | 11151 | 208 | -56.0 | -64.6 | |||
| 2010-01-01T00:00 | 11155 | 207 | -56.1 | -64.7 | |||
| 2010-01-01T00:00 | 11175 | 207 | -56.1 | -64.8 | |||
| 2010-01-01T00:00 | 11183 | 207 | -56.0 | -64.7 | |||
| 2010-01-01T00:00 | 11186 | 206 | -56.0 | -64.7 | 249 | 20 | |
| 2010-01-01T00:00 | 11204 | 206 | -55.8 | -64.6 | |||
| 2010-01-01T00:00 | 11214 | 206 | -55.7 | -64.5 | |||
| 2010-01-01T00:00 | 11217 | 205 | -55.8 | -64.6 | |||
| 2010-01-01T00:00 | 11234 | 205 | -55.7 | -64.6 | |||
| 2010-01-01T00:00 | 11241 | 205 | -55.7 | -64.6 | |||
| 2010-01-01T00:00 | 11245 | 205 | -55.8 | -64.7 | |||
| 2010-01-01T00:00 | 11265 | 204 | -55.7 | -64.6 | |||
| 2010-01-01T00:00 | 11278 | 203 | -55.2 | -64.2 | |||
| 2010-01-01T00:00 | 11282 | 203 | -55.2 | -64.3 | |||
| 2010-01-01T00:00 | 11306 | 203 | -55.0 | -64.1 | |||
| 2010-01-01T00:00 | 11316 | 202 | -54.8 | -64.0 | |||
| 2010-01-01T00:00 | 11321 | 202 | -54.8 | -64.0 | |||
| 2010-01-01T00:00 | 11339 | 202 | -54.6 | -63.8 | |||
| 2010-01-01T00:00 | 11345 | 201 | -54.6 | -63.8 | |||
| 2010-01-01T00:00 | 11347 | 201 | -54.5 | -63.8 | |||
| 2010-01-01T00:00 | 11364 | 201 | -54.2 | -63.4 | |||
| 2010-01-01T00:00 | 11377 | 200 | -54.1 | -63.3 | |||
| 2010-01-01T00:00 | 11383 | 200 | -54.2 | -63.5 | |||
| 2010-01-01T00:00 | 11388 | 200 | -54.1 | -63.5 | |||
| 2010-01-01T00:00 | 11409 | 199 | -54.0 | ||||
| 2010-01-01T00:00 | 11421 | 199 | -53.9 | ||||
| 2010-01-01T00:00 | 11425 | 199 | -54.0 | 249 | 23 | ||
| 2010-01-01T00:00 | 11444 | 198 | -53.6 | ||||
| 2010-01-01T00:00 | 11452 | 198 | -53.5 | ||||
| 2010-01-01T00:00 | 11455 | 198 | -53.6 | ||||
| 2010-01-01T00:00 | 11474 | 197 | -53.4 | ||||
| 2010-01-01T00:00 | 11486 | 197 | -53.5 | ||||
| 2010-01-01T00:00 | 11490 | 197 | -53.6 | ||||
| 2010-01-01T00:00 | 11512 | 196 | -53.6 | ||||
| 2010-01-01T00:00 | 11523 | 196 | -53.6 | ||||
| 2010-01-01T00:00 | 11529 | 196 | -53.7 | ||||
| 2010-01-01T00:00 | 11551 | 195 | -53.5 | ||||
| 2010-01-01T00:00 | 11560 | 195 | -53.5 | ||||
| 2010-01-01T00:00 | 11563 | 195 | -53.7 | ||||
| 2010-01-01T00:00 | 11580 | 194 | -53.7 | ||||
| 2010-01-01T00:00 | 11589 | 194 | -53.5 | ||||
| 2010-01-01T00:00 | 11594 | 194 | -53.7 | ||||
| 2010-01-01T00:00 | 11618 | 193 | -53.6 | ||||
| 2010-01-01T00:00 | 11633 | 193 | -53.6 | ||||
| 2010-01-01T00:00 | 11639 | 192 | -53.7 | ||||
| 2010-01-01T00:00 | 11657 | 192 | -53.6 | ||||
| 2010-01-01T00:00 | 11660 | 192 | -53.5 | ||||
| 2010-01-01T00:00 | 11662 | 192 | -53.5 | ||||
| 2010-01-01T00:00 | 11665 | 192 | -53.4 | 246 | 25 | ||
| 2010-01-01T00:00 | 11676 | 191 | -53.3 | ||||
| 2010-01-01T00:00 | 11691 | 191 | -53.1 | ||||
| 2010-01-01T00:00 | 11695 | 191 | -53.2 | ||||
| 2010-01-01T00:00 | 11721 | 190 | -53.2 | ||||
| 2010-01-01T00:00 | 11732 | 190 | -53.1 | ||||
| 2010-01-01T00:00 | 11738 | 189 | -53.2 | ||||
| 2010-01-01T00:00 | 11760 | 189 | -53.0 | ||||
| 2010-01-01T00:00 | 11766 | 189 | -53.1 | ||||
| 2010-01-01T00:00 | 11772 | 188 | -53.2 | ||||
| 2010-01-01T00:00 | 11787 | 188 | -53.1 | ||||
| 2010-01-01T00:00 | 11793 | 188 | -53.1 | ||||
| 2010-01-01T00:00 | 11796 | 188 | -53.2 | ||||
| 2010-01-01T00:00 | 11814 | 187 | -53.1 | ||||
| 2010-01-01T00:00 | 11824 | 187 | -53.0 | ||||
| 2010-01-01T00:00 | 11833 | 187 | -53.1 | ||||
| 2010-01-01T00:00 | 11856 | 186 | -53.0 | ||||
| 2010-01-01T00:00 | 11866 | 186 | -52.9 | ||||
| 2010-01-01T00:00 | 11870 | 186 | -53.0 | ||||
| 2010-01-01T00:00 | 11890 | 185 | -53.0 | ||||
| 2010-01-01T00:00 | 11895 | 185 | -52.9 | ||||
| 2010-01-01T00:00 | 11898 | 185 | -53.0 | ||||
| 2010-01-01T00:00 | 11904 | 185 | -52.9 | 246 | 27 | ||
| 2010-01-01T00:00 | 11914 | 184 | -52.8 | ||||
| 2010-01-01T00:00 | 11928 | 184 | -52.7 | ||||
| 2010-01-01T00:00 | 11932 | 184 | -52.8 | ||||
| 2010-01-01T00:00 | 11953 | 183 | -52.8 | ||||
| 2010-01-01T00:00 | 11961 | 183 | -52.9 | ||||
| 2010-01-01T00:00 | 11965 | 183 | -53.0 | ||||
| 2010-01-01T00:00 | 11983 | 182 | -53.0 | ||||
| 2010-01-01T00:00 | 11992 | 182 | -53.1 | ||||
| 2010-01-01T00:00 | 11995 | 182 | -53.3 | ||||
| 2010-01-01T00:00 | 12013 | 181 | -53.3 | ||||
| 2010-01-01T00:00 | 12023 | 181 | -53.3 | ||||
| 2010-01-01T00:00 | 12028 | 181 | -53.5 | ||||
| 2010-01-01T00:00 | 12050 | 180 | -53.5 | ||||
| 2010-01-01T00:00 | 12058 | 180 | -53.3 | ||||
| 2010-01-01T00:00 | 12066 | 180 | -53.3 | ||||
| 2010-01-01T00:00 | 12084 | 180 | -52.6 | ||||
| 2010-01-01T00:00 | 12090 | 179 | -52.5 | ||||
| 2010-01-01T00:00 | 12093 | 179 | -52.6 | ||||
| 2010-01-01T00:00 | 12111 | 179 | -52.3 | ||||
| 2010-01-01T00:00 | 12121 | 178 | -52.2 | ||||
| 2010-01-01T00:00 | 12126 | 178 | -52.3 | ||||
| 2010-01-01T00:00 | 12139 | 178 | -52.3 | 252 | 30 | ||
| 2010-01-01T00:00 | 12148 | 178 | -52.3 | ||||
| 2010-01-01T00:00 | 12160 | 177 | -52.3 | ||||
| 2010-01-01T00:00 | 12164 | 177 | -52.5 | ||||
| 2010-01-01T00:00 | 12183 | 177 | -52.5 | ||||
| 2010-01-01T00:00 | 12190 | 177 | -52.4 | ||||
| 2010-01-01T00:00 | 12193 | 176 | -52.4 | ||||
| 2010-01-01T00:00 | 12214 | 176 | -52.2 | ||||
| 2010-01-01T00:00 | 12230 | 175 | -52.1 | ||||
| 2010-01-01T00:00 | 12236 | 175 | -52.2 | ||||
| 2010-01-01T00:00 | 12255 | 175 | -52.3 | ||||
| 2010-01-01T00:00 | 12258 | 175 | -52.3 | ||||
| 2010-01-01T00:00 | 12260 | 175 | -52.3 | ||||
| 2010-01-01T00:00 | 12272 | 174 | -52.2 | ||||
| 2010-01-01T00:00 | 12279 | 174 | -52.2 | ||||
| 2010-01-01T00:00 | 12286 | 174 | -52.3 | ||||
| 2010-01-01T00:00 | 12304 | 174 | -52.4 | ||||
| 2010-01-01T00:00 | 12311 | 173 | -52.4 | ||||
| 2010-01-01T00:00 | 12314 | 173 | -52.6 | ||||
| 2010-01-01T00:00 | 12337 | 173 | -52.5 | ||||
| 2010-01-01T00:00 | 12348 | 172 | -52.4 | ||||
| 2010-01-01T00:00 | 12354 | 172 | -52.5 | ||||
| 2010-01-01T00:00 | 12370 | 172 | -52.6 | 252 | 31 | ||
| 2010-01-01T00:00 | 12374 | 172 | -52.6 | ||||
| 2010-01-01T00:00 | 12379 | 171 | -52.6 | ||||
| 2010-01-01T00:00 | 12381 | 171 | -52.8 | ||||
| 2010-01-01T00:00 | 12395 | 171 | -52.8 | ||||
| 2010-01-01T00:00 | 12405 | 171 | -52.8 | ||||
| 2010-01-01T00:00 | 12410 | 171 | -53.0 | ||||
| 2010-01-01T00:00 | 12435 | 170 | -52.9 | ||||
| 2010-01-01T00:00 | 12451 | 170 | -52.8 | ||||
| 2010-01-01T00:00 | 12457 | 169 | -53.0 | ||||
| 2010-01-01T00:00 | 12479 | 169 | -53.0 | ||||
| 2010-01-01T00:00 | 12485 | 169 | -53.0 | ||||
| 2010-01-01T00:00 | 12489 | 169 | -53.0 | ||||
| 2010-01-01T00:00 | 12504 | 168 | -52.9 | ||||
| 2010-01-01T00:00 | 12511 | 168 | -52.9 | ||||
| 2010-01-01T00:00 | 12518 | 168 | -53.0 | ||||
| 2010-01-01T00:00 | 12539 | 167 | -52.9 | ||||
| 2010-01-01T00:00 | 12550 | 167 | -52.8 | ||||
| 2010-01-01T00:00 | 12556 | 167 | -53.0 | ||||
| 2010-01-01T00:00 | 12578 | 166 | -53.0 | ||||
| 2010-01-01T00:00 | 12584 | 166 | -52.9 | ||||
| 2010-01-01T00:00 | 12586 | 166 | -53.1 | ||||
| 2010-01-01T00:00 | 12605 | 166 | -52.7 | 250 | 30 | ||
| 2010-01-01T00:00 | 12620 | 165 | -52.6 | ||||
| 2010-01-01T00:00 | 12625 | 165 | -52.7 | ||||
| 2010-01-01T00:00 | 12652 | 164 | -52.8 | ||||
| 2010-01-01T00:00 | 12664 | 164 | -52.8 | ||||
| 2010-01-01T00:00 | 12670 | 164 | -52.9 | ||||
| 2010-01-01T00:00 | 12694 | 163 | -52.9 | ||||
| 2010-01-01T00:00 | 12700 | 163 | -52.8 | ||||
| 2010-01-01T00:00 | 12705 | 163 | -52.8 | ||||
| 2010-01-01T00:00 | 12723 | 163 | -52.6 | ||||
| 2010-01-01T00:00 | 12733 | 162 | -52.5 | ||||
| 2010-01-01T00:00 | 12738 | 162 | -52.6 | ||||
| 2010-01-01T00:00 | 12760 | 162 | -52.5 | ||||
| 2010-01-01T00:00 | 12766 | 162 | -52.5 | ||||
| 2010-01-01T00:00 | 12770 | 161 | -52.7 | ||||
| 2010-01-01T00:00 | 12789 | 161 | -52.7 | ||||
| 2010-01-01T00:00 | 12803 | 161 | -52.7 | ||||
| 2010-01-01T00:00 | 12807 | 160 | -52.8 | ||||
| 2010-01-01T00:00 | 12829 | 160 | -52.7 | ||||
| 2010-01-01T00:00 | 12837 | 160 | -52.6 | ||||
| 2010-01-01T00:00 | 12841 | 160 | -52.7 | ||||
| 2010-01-01T00:00 | 12859 | 159 | -52.5 | ||||
| 2010-01-01T00:00 | 12862 | 159 | -52.5 | 260 | 30 | ||
| 2010-01-01T00:00 | 12868 | 159 | -52.4 | ||||
| 2010-01-01T00:00 | 12871 | 159 | -52.5 | ||||
| 2010-01-01T00:00 | 12890 | 158 | -52.1 | ||||
| 2010-01-01T00:00 | 12900 | 158 | -52.0 | ||||
| 2010-01-01T00:00 | 12906 | 158 | -52.1 | ||||
| 2010-01-01T00:00 | 12930 | 157 | -52.1 | ||||
| 2010-01-01T00:00 | 12939 | 157 | -52.0 | ||||
| 2010-01-01T00:00 | 12943 | 157 | -52.1 | ||||
| 2010-01-01T00:00 | 12960 | 157 | -52.0 | ||||
| 2010-01-01T00:00 | 12967 | 157 | -51.9 | ||||
| 2010-01-01T00:00 | 12969 | 157 | -52.0 | ||||
| 2010-01-01T00:00 | 12987 | 156 | -51.9 | ||||
| 2010-01-01T00:00 | 12998 | 156 | -51.9 | ||||
| 2010-01-01T00:00 | 13004 | 156 | -52.0 | ||||
| 2010-01-01T00:00 | 13028 | 155 | -52.0 | ||||
| 2010-01-01T00:00 | 13035 | 155 | -51.9 | ||||
| 2010-01-01T00:00 | 13042 | 155 | -52.0 | ||||
| 2010-01-01T00:00 | 13063 | 154 | -52.1 | ||||
| 2010-01-01T00:00 | 13073 | 154 | -52.2 | ||||
| 2010-01-01T00:00 | 13078 | 154 | -52.2 | ||||
| 2010-01-01T00:00 | 13101 | 153 | -51.9 | ||||
| 2010-01-01T00:00 | 13109 | 153 | -51.7 | 265 | 28 | ||
| 2010-01-01T00:00 | 13113 | 153 | -51.8 | ||||
| 2010-01-01T00:00 | 13131 | 153 | -51.8 | ||||
| 2010-01-01T00:00 | 13142 | 152 | -51.9 | ||||
| 2010-01-01T00:00 | 13145 | 152 | -52.0 | ||||
| 2010-01-01T00:00 | 13160 | 152 | -52.1 | ||||
| 2010-01-01T00:00 | 13165 | 152 | -52.1 | ||||
| 2010-01-01T00:00 | 13167 | 152 | -52.3 | ||||
| 2010-01-01T00:00 | 13185 | 151 | -52.4 | ||||
| 2010-01-01T00:00 | 13197 | 151 | -52.4 | ||||
| 2010-01-01T00:00 | 13202 | 151 | -52.6 | ||||
| 2010-01-01T00:00 | 13227 | 150 | -52.6 | ||||
| 2010-01-01T00:00 | 13239 | 150 | -52.6 | ||||
| 2010-01-01T00:00 | 13243 | 150 | -52.5 | ||||
| 2010-01-01T00:00 | 13244 | 150 | -52.5 | ||||
| 2010-01-01T00:00 | 13262 | 150 | -52.4 | ||||
| 2010-01-01T00:00 | 13269 | 149 | -52.3 | ||||
| 2010-01-01T00:00 | 13273 | 149 | -52.4 | ||||
| 2010-01-01T00:00 | 13291 | 149 | -52.1 | ||||
| 2010-01-01T00:00 | 13297 | 149 | -52.0 | ||||
| 2010-01-01T00:00 | 13303 | 149 | -52.1 | ||||
| 2010-01-01T00:00 | 13325 | 148 | -52.0 | ||||
| 2010-01-01T00:00 | 13338 | 148 | -52.0 | ||||
| 2010-01-01T00:00 | 13344 | 148 | -52.1 | 256 | 28 | ||
| 2010-01-01T00:00 | 13368 | 147 | -52.2 | ||||
| 2010-01-01T00:00 | 13373 | 147 | -52.2 | ||||
| 2010-01-01T00:00 | 13375 | 147 | -52.2 | ||||
| 2010-01-01T00:00 | 13392 | 147 | -52.0 | ||||
| 2010-01-01T00:00 | 13406 | 146 | -52.0 | ||||
| 2010-01-01T00:00 | 13410 | 146 | -52.2 | ||||
| 2010-01-01T00:00 | 13433 | 146 | -52.3 | ||||
| 2010-01-01T00:00 | 13443 | 145 | -52.3 | ||||
| 2010-01-01T00:00 | 13447 | 145 | -52.5 | ||||
| 2010-01-01T00:00 | 13473 | 145 | -52.6 | ||||
| 2010-01-01T00:00 | 13485 | 145 | -52.7 | ||||
| 2010-01-01T00:00 | 13497 | 144 | -52.8 | ||||
| 2010-01-01T00:00 | 13520 | 144 | -52.9 | ||||
| 2010-01-01T00:00 | 13526 | 144 | -52.7 | ||||
| 2010-01-01T00:00 | 13528 | 144 | -52.8 | ||||
| 2010-01-01T00:00 | 13542 | 143 | -52.6 | ||||
| 2010-01-01T00:00 | 13547 | 143 | -52.5 | ||||
| 2010-01-01T00:00 | 13550 | 143 | -52.7 | ||||
| 2010-01-01T00:00 | 13565 | 143 | -52.5 | ||||
| 2010-01-01T00:00 | 13576 | 142 | -52.5 | ||||
| 2010-01-01T00:00 | 13579 | 142 | -52.7 | ||||
| 2010-01-01T00:00 | 13584 | 142 | -52.7 | 259 | 29 | ||
| 2010-01-01T00:00 | 13602 | 142 | -52.8 | ||||
| 2010-01-01T00:00 | 13615 | 142 | -52.8 | ||||
| 2010-01-01T00:00 | 13621 | 142 | -52.8 | ||||
| 2010-01-01T00:00 | 13646 | 141 | -52.9 | ||||
| 2010-01-01T00:00 | 13653 | 141 | -53.0 | ||||
| 2010-01-01T00:00 | 13657 | 141 | -53.0 | ||||
| 2010-01-01T00:00 | 13674 | 140 | -52.9 | ||||
| 2010-01-01T00:00 | 13684 | 140 | -52.8 | ||||
| 2010-01-01T00:00 | 13687 | 140 | -53.0 | ||||
| 2010-01-01T00:00 | 13710 | 140 | -53.1 | ||||
| 2010-01-01T00:00 | 13722 | 139 | -53.1 | ||||
| 2010-01-01T00:00 | 13728 | 139 | -53.2 | ||||
| 2010-01-01T00:00 | 13754 | 139 | -53.2 | ||||
| 2010-01-01T00:00 | 13762 | 138 | -53.2 | ||||
| 2010-01-01T00:00 | 13771 | 138 | -53.3 | ||||
| 2010-01-01T00:00 | 13793 | 138 | -53.2 | ||||
| 2010-01-01T00:00 | 13803 | 138 | -53.1 | ||||
| 2010-01-01T00:00 | 13808 | 137 | -53.1 | ||||
| 2010-01-01T00:00 | 13829 | 137 | -52.9 | ||||
| 2010-01-01T00:00 | 13836 | 137 | -52.9 | ||||
| 2010-01-01T00:00 | 13840 | 137 | -53.0 | ||||
| 2010-01-01T00:00 | 13851 | 137 | -52.9 | 260 | 29 | ||
| 2010-01-01T00:00 | 13859 | 136 | -52.8 | ||||
| 2010-01-01T00:00 | 13873 | 136 | -52.7 | ||||
| 2010-01-01T00:00 | 13877 | 136 | -52.7 | ||||
| 2010-01-01T00:00 | 13898 | 136 | -52.3 | ||||
| 2010-01-01T00:00 | 13905 | 135 | -52.2 | ||||
| 2010-01-01T00:00 | 13909 | 135 | -52.2 | ||||
| 2010-01-01T00:00 | 13929 | 135 | -51.7 | ||||
| 2010-01-01T00:00 | 13939 | 135 | -51.6 | ||||
| 2010-01-01T00:00 | 13944 | 135 | -51.7 | ||||
| 2010-01-01T00:00 | 13966 | 134 | -51.7 | ||||
| 2010-01-01T00:00 | 13977 | 134 | -51.6 | ||||
| 2010-01-01T00:00 | 13981 | 134 | -51.7 | ||||
| 2010-01-01T00:00 | 14001 | 133 | -51.6 | ||||
| 2010-01-01T00:00 | 14009 | 133 | -51.3 | ||||
| 2010-01-01T00:00 | 14014 | 133 | -51.3 | ||||
| 2010-01-01T00:00 | 14039 | 133 | -51.4 | ||||
| 2010-01-01T00:00 | 14051 | 132 | -51.4 | ||||
| 2010-01-01T00:00 | 14057 | 132 | -51.5 | ||||
| 2010-01-01T00:00 | 14080 | 132 | -51.5 | ||||
| 2010-01-01T00:00 | 14088 | 132 | -51.5 | ||||
| 2010-01-01T00:00 | 14091 | 132 | -51.6 | ||||
| 2010-01-01T00:00 | 14106 | 131 | -51.6 | 259 | 29 | ||
| 2010-01-01T00:00 | 14110 | 131 | -51.7 | ||||
| 2010-01-01T00:00 | 14121 | 131 | -51.6 | ||||
| 2010-01-01T00:00 | 14127 | 131 | -51.8 | ||||
| 2010-01-01T00:00 | 14148 | 130 | -51.7 | ||||
| 2010-01-01T00:00 | 14153 | 130 | -51.7 | ||||
| 2010-01-01T00:00 | 14158 | 130 | -51.8 | ||||
| 2010-01-01T00:00 | 14173 | 130 | -51.8 | ||||
| 2010-01-01T00:00 | 14180 | 130 | -51.9 | ||||
| 2010-01-01T00:00 | 14183 | 130 | -52.0 | ||||
| 2010-01-01T00:00 | 14201 | 129 | -52.0 | ||||
| 2010-01-01T00:00 | 14209 | 129 | -52.0 | ||||
| 2010-01-01T00:00 | 14231 | 129 | -52.0 | ||||
| 2010-01-01T00:00 | 14378 | 126 | -52.5 | ||||
| 2010-01-01T00:00 | 14381 | 126 | -52.5 | 257 | 33 | ||
| 2010-01-01T00:00 | 14390 | 126 | -52.6 | ||||
| 2010-01-01T00:00 | 14402 | 125 | -52.4 | ||||
| 2010-01-01T00:00 | 14429 | 125 | -52.1 | ||||
| 2010-01-01T00:00 | 14435 | 125 | -51.7 | ||||
| 2010-01-01T00:00 | 14438 | 125 | -51.8 | ||||
| 2010-01-01T00:00 | 14462 | 124 | -51.9 | ||||
| 2010-01-01T00:00 | 14476 | 124 | -51.9 | ||||
| 2010-01-01T00:00 | 14512 | 123 | -52.0 | ||||
| 2010-01-01T00:00 | 14513 | 123 | -52.1 | ||||
| 2010-01-01T00:00 | 14514 | 123 | -52.2 | ||||
| 2010-01-01T00:00 | 14526 | 123 | -52.2 | ||||
| 2010-01-01T00:00 | 14537 | 123 | -52.3 | ||||
| 2010-01-01T00:00 | 14542 | 123 | -52.5 | ||||
| 2010-01-01T00:00 | 14564 | 122 | -52.2 | ||||
| 2010-01-01T00:00 | 14574 | 122 | -52.2 | ||||
| 2010-01-01T00:00 | 14577 | 122 | -52.3 | ||||
| 2010-01-01T00:00 | 14596 | 122 | -52.3 | ||||
| 2010-01-01T00:00 | 14606 | 122 | -52.3 | 261 | 20 | ||
| 2010-01-01T00:00 | 14611 | 121 | -52.4 | ||||
| 2010-01-01T00:00 | 14638 | 121 | -52.4 | ||||
| 2010-01-01T00:00 | 14650 | 121 | -52.5 | ||||
| 2010-01-01T00:00 | 14656 | 121 | -52.6 | ||||
| 2010-01-01T00:00 | 14679 | 120 | -52.6 | ||||
| 2010-01-01T00:00 | 14687 | 120 | -52.6 | ||||
| 2010-01-01T00:00 | 14690 | 120 | -52.8 | ||||
| 2010-01-01T00:00 | 14707 | 120 | -52.7 | ||||
| 2010-01-01T00:00 | 14717 | 119 | -52.8 | ||||
| 2010-01-01T00:00 | 14722 | 119 | -52.8 | ||||
| 2010-01-01T00:00 | 14746 | 119 | -52.7 | ||||
| 2010-01-01T00:00 | 14756 | 119 | -52.7 | ||||
| 2010-01-01T00:00 | 14760 | 119 | -52.8 | ||||
| 2010-01-01T00:00 | 14783 | 118 | -52.9 | ||||
| 2010-01-01T00:00 | 14797 | 118 | -52.9 | ||||
| 2010-01-01T00:00 | 14823 | 117 | -53.2 | ||||
| 2010-01-01T00:00 | 14830 | 117 | -53.3 | ||||
| 2010-01-01T00:00 | 14834 | 117 | -53.4 | ||||
| 2010-01-01T00:00 | 14857 | 117 | -53.5 | ||||
| 2010-01-01T00:00 | 14870 | 117 | -53.5 | ||||
| 2010-01-01T00:00 | 14877 | 117 | -53.6 | ||||
| 2010-01-01T00:00 | 14882 | 116 | -53.7 | 257 | 23 | ||
| 2010-01-01T00:00 | 14904 | 116 | -53.7 | ||||
| 2010-01-01T00:00 | 14915 | 116 | -53.7 | ||||
| 2010-01-01T00:00 | 14919 | 116 | -53.9 | ||||
| 2010-01-01T00:00 | 14938 | 115 | -53.8 | ||||
| 2010-01-01T00:00 | 14945 | 115 | -53.8 | ||||
| 2010-01-01T00:00 | 14949 | 115 | -53.9 | ||||
| 2010-01-01T00:00 | 14971 | 115 | -53.9 | ||||
| 2010-01-01T00:00 | 14981 | 115 | -53.9 | ||||
| 2010-01-01T00:00 | 14992 | 114 | -54.1 | ||||
| 2010-01-01T00:00 | 15012 | 114 | -54.0 | ||||
| 2010-01-01T00:00 | 15016 | 114 | -53.8 | ||||
| 2010-01-01T00:00 | 15019 | 114 | -53.9 | ||||
| 2010-01-01T00:00 | 15038 | 114 | -53.8 | ||||
| 2010-01-01T00:00 | 15051 | 113 | -53.9 | ||||
| 2010-01-01T00:00 | 15057 | 113 | -54.0 | ||||
| 2010-01-01T00:00 | 15086 | 113 | -54.0 | ||||
| 2010-01-01T00:00 | 15096 | 113 | -53.9 | ||||
| 2010-01-01T00:00 | 15106 | 112 | -54.0 | ||||
| 2010-01-01T00:00 | 15131 | 112 | -53.8 | ||||
| 2010-01-01T00:00 | 15142 | 112 | -53.7 | ||||
| 2010-01-01T00:00 | 15147 | 112 | -53.8 | ||||
| 2010-01-01T00:00 | 15159 | 112 | -53.8 | 253 | 25 | ||
| 2010-01-01T00:00 | 15177 | 111 | -53.7 | ||||
| 2010-01-01T00:00 | 15191 | 111 | -53.5 | ||||
| 2010-01-01T00:00 | 15198 | 111 | -53.6 | ||||
| 2010-01-01T00:00 | 15223 | 110 | -53.5 | ||||
| 2010-01-01T00:00 | 15228 | 110 | -53.4 | ||||
| 2010-01-01T00:00 | 15229 | 110 | -53.5 | ||||
| 2010-01-01T00:00 | 15242 | 110 | -53.5 | ||||
| 2010-01-01T00:00 | 15250 | 110 | -53.5 | ||||
| 2010-01-01T00:00 | 15254 | 110 | -53.6 | ||||
| 2010-01-01T00:00 | 15274 | 110 | -53.5 | ||||
| 2010-01-01T00:00 | 15282 | 109 | -53.5 | ||||
| 2010-01-01T00:00 | 15286 | 109 | -53.6 | ||||
| 2010-01-01T00:00 | 15307 | 109 | -53.6 | ||||
| 2010-01-01T00:00 | 15321 | 109 | -53.6 | ||||
| 2010-01-01T00:00 | 15325 | 109 | -53.8 | ||||
| 2010-01-01T00:00 | 15349 | 108 | -53.8 | ||||
| 2010-01-01T00:00 | 15360 | 108 | -53.8 | ||||
| 2010-01-01T00:00 | 15366 | 108 | -53.9 | ||||
| 2010-01-01T00:00 | 15387 | 108 | -53.9 | ||||
| 2010-01-01T00:00 | 15392 | 108 | -53.9 | ||||
| 2010-01-01T00:00 | 15395 | 107 | -54.0 | ||||
| 2010-01-01T00:00 | 15408 | 107 | -54.1 | 251 | 25 | ||
| 2010-01-01T00:00 | 15411 | 107 | -54.1 | ||||
| 2010-01-01T00:00 | 15424 | 107 | -54.1 | ||||
| 2010-01-01T00:00 | 15429 | 107 | -54.3 | ||||
| 2010-01-01T00:00 | 15450 | 107 | -54.4 | ||||
| 2010-01-01T00:00 | 15458 | 106 | -54.4 | ||||
| 2010-01-01T00:00 | 15462 | 106 | -54.5 | ||||
| 2010-01-01T00:00 | 15482 | 106 | -54.5 | ||||
| 2010-01-01T00:00 | 15489 | 106 | -54.5 | ||||
| 2010-01-01T00:00 | 15492 | 106 | -54.6 | ||||
| 2010-01-01T00:00 | 15512 | 106 | -54.4 | ||||
| 2010-01-01T00:00 | 15527 | 105 | -54.4 | ||||
| 2010-01-01T00:00 | 15532 | 105 | -54.6 | ||||
| 2010-01-01T00:00 | 15556 | 105 | -54.5 | ||||
| 2010-01-01T00:00 | 15566 | 105 | -54.5 | ||||
| 2010-01-01T00:00 | 15571 | 105 | -54.6 | ||||
| 2010-01-01T00:00 | 15591 | 104 | -54.6 | ||||
| 2010-01-01T00:00 | 15598 | 104 | -54.6 | ||||
| 2010-01-01T00:00 | 15604 | 104 | -54.8 | ||||
| 2010-01-01T00:00 | 15621 | 104 | -54.8 | ||||
| 2010-01-01T00:00 | 15629 | 104 | -54.6 | ||||
| 2010-01-01T00:00 | 15633 | 104 | -54.8 | ||||
| 2010-01-01T00:00 | 15654 | 103 | -54.6 | 252 | 29 | ||
| 2010-01-01T00:00 | 15663 | 103 | -54.6 | ||||
| 2010-01-01T00:00 | 15668 | 103 | -54.7 | ||||
| 2010-01-01T00:00 | 15687 | 103 | -54.8 | ||||
| 2010-01-01T00:00 | 15696 | 103 | -54.7 | ||||
| 2010-01-01T00:00 | 15699 | 102 | -54.9 | ||||
| 2010-01-01T00:00 | 15718 | 102 | -54.9 | ||||
| 2010-01-01T00:00 | 15729 | 102 | -54.9 | ||||
| 2010-01-01T00:00 | 15735 | 102 | -55.0 | ||||
| 2010-01-01T00:00 | 15755 | 102 | -55.0 | ||||
| 2010-01-01T00:00 | 15759 | 102 | -54.9 | ||||
| 2010-01-01T00:00 | 15760 | 102 | -54.9 | ||||
| 2010-01-01T00:00 | 15771 | 101 | -54.7 | ||||
| 2010-01-01T00:00 | 15778 | 101 | -54.7 | ||||
| 2010-01-01T00:00 | 15781 | 101 | -54.7 | ||||
| 2010-01-01T00:00 | 15800 | 101 | -54.7 | ||||
| 2010-01-01T00:00 | 15812 | 101 | -54.6 | ||||
| 2010-01-01T00:00 | 15817 | 101 | -54.7 | ||||
| 2010-01-01T00:00 | 15842 | 100 | -54.7 | ||||
| 2010-01-01T00:00 | 15849 | 100 | -54.8 | ||||
| 2010-01-01T00:00 | 15853 | 100 | -54.9 | ||||
| 2010-01-01T00:00 | 15856 | 100 | -54.9 | ||||
| 2010-01-01T00:00 | 15872 | 100 | -54.7 | ||||
| 2010-01-01T00:00 | 15881 | 100 | -54.6 | 253 | 31 | ||
| 2010-01-01T00:00 | 15885 | 100 | -54.6 | ||||
| 2010-01-01T00:00 | 15889 | 99 | -54.7 | ||||
| 2010-01-01T00:00 | 15909 | 99 | -54.7 | ||||
| 2010-01-01T00:00 | 15917 | 99 | -54.7 | ||||
| 2010-01-01T00:00 | 15920 | 99 | -54.8 | ||||
| 2010-01-01T00:00 | 15937 | 99 | -54.9 | ||||
| 2010-01-01T00:00 | 15943 | 99 | -54.9 | ||||
| 2010-01-01T00:00 | 15949 | 99 | -55.0 | ||||
| 2010-01-01T00:00 | 15965 | 98 | -55.1 | ||||
| 2010-01-01T00:00 | 15973 | 98 | -55.0 | ||||
| 2010-01-01T00:00 | 15996 | 98 | -55.1 | ||||
| 2010-01-01T00:00 | 16003 | 98 | -55.0 | ||||
| 2010-01-01T00:00 | 16007 | 98 | -55.0 | ||||
| 2010-01-01T00:00 | 16062 | 97 | -55.5 | ||||
| 2010-01-01T00:00 | 16096 | 96 | -55.5 | ||||
| 2010-01-01T00:00 | 16105 | 96 | -55.5 | ||||
| 2010-01-01T00:00 | 16109 | 96 | -55.6 | 256 | 25 | ||
| 2010-01-01T00:00 | 16130 | 96 | -55.3 | ||||
| 2010-01-01T00:00 | 16142 | 96 | -55.3 | ||||
| 2010-01-01T00:00 | 16146 | 96 | -55.3 | ||||
| 2010-01-01T00:00 | 16171 | 95 | -55.3 | ||||
| 2010-01-01T00:00 | 16184 | 95 | -55.2 | ||||
| 2010-01-01T00:00 | 16191 | 95 | -55.3 | ||||
| 2010-01-01T00:00 | 16214 | 95 | -55.2 | ||||
| 2010-01-01T00:00 | 16217 | 94 | -55.2 | ||||
| 2010-01-01T00:00 | 16219 | 94 | -55.4 | ||||
| 2010-01-01T00:00 | 16230 | 94 | -55.5 | ||||
| 2010-01-01T00:00 | 16241 | 94 | -55.5 | ||||
| 2010-01-01T00:00 | 16244 | 94 | -55.6 | ||||
| 2010-01-01T00:00 | 16267 | 94 | -55.5 | ||||
| 2010-01-01T00:00 | 16279 | 94 | -55.5 | ||||
| 2010-01-01T00:00 | 16286 | 93 | -55.6 | ||||
| 2010-01-01T00:00 | 16310 | 93 | -55.5 | ||||
| 2010-01-01T00:00 | 16315 | 93 | -55.3 | ||||
| 2010-01-01T00:00 | 16318 | 93 | -55.4 | ||||
| 2010-01-01T00:00 | 16332 | 93 | -55.4 | ||||
| 2010-01-01T00:00 | 16341 | 93 | -55.3 | ||||
| 2010-01-01T00:00 | 16344 | 93 | -55.4 | ||||
| 2010-01-01T00:00 | 16348 | 93 | -55.4 | 262 | 26 | ||
| 2010-01-01T00:00 | 16367 | 92 | -55.3 | ||||
| 2010-01-01T00:00 | 16381 | 92 | -55.1 | ||||
| 2010-01-01T00:00 | 16388 | 92 | -55.2 | ||||
| 2010-01-01T00:00 | 16419 | 92 | -55.2 | ||||
| 2010-01-01T00:00 | 16428 | 91 | -55.3 | ||||
| 2010-01-01T00:00 | 16437 | 91 | -55.4 | ||||
| 2010-01-01T00:00 | 16456 | 91 | -55.5 | ||||
| 2010-01-01T00:00 | 16461 | 91 | -55.4 | ||||
| 2010-01-01T00:00 | 16464 | 91 | -55.5 | ||||
| 2010-01-01T00:00 | 16482 | 91 | -55.3 | ||||
| 2010-01-01T00:00 | 16493 | 90 | -55.3 | ||||
| 2010-01-01T00:00 | 16498 | 90 | -55.3 | ||||
| 2010-01-01T00:00 | 16522 | 90 | -55.2 | ||||
| 2010-01-01T00:00 | 16530 | 90 | -55.2 | ||||
| 2010-01-01T00:00 | 16537 | 90 | -55.3 | ||||
| 2010-01-01T00:00 | 16560 | 90 | -55.4 | ||||
| 2010-01-01T00:00 | 16571 | 89 | -55.3 | ||||
| 2010-01-01T00:00 | 16576 | 89 | -55.5 | ||||
| 2010-01-01T00:00 | 16602 | 89 | -55.5 | ||||
| 2010-01-01T00:00 | 16612 | 89 | -55.5 | ||||
| 2010-01-01T00:00 | 16617 | 89 | -55.6 | ||||
| 2010-01-01T00:00 | 16631 | 89 | -55.5 | 263 | 31 | ||
| 2010-01-01T00:00 | 16640 | 88 | -55.5 | ||||
| 2010-01-01T00:00 | 16650 | 88 | -55.5 | ||||
| 2010-01-01T00:00 | 16659 | 88 | -55.6 | ||||
| 2010-01-01T00:00 | 16681 | 88 | -55.7 | ||||
| 2010-01-01T00:00 | 16688 | 88 | -55.7 | ||||
| 2010-01-01T00:00 | 16692 | 88 | -55.8 | ||||
| 2010-01-01T00:00 | 16715 | 87 | -55.8 | ||||
| 2010-01-01T00:00 | 16728 | 87 | -55.8 | ||||
| 2010-01-01T00:00 | 16734 | 87 | -55.9 | ||||
| 2010-01-01T00:00 | 16759 | 87 | -56.0 | ||||
| 2010-01-01T00:00 | 16769 | 87 | -56.0 | ||||
| 2010-01-01T00:00 | 16773 | 87 | -56.1 | ||||
| 2010-01-01T00:00 | 16794 | 86 | -56.0 | ||||
| 2010-01-01T00:00 | 16803 | 86 | -56.1 | ||||
| 2010-01-01T00:00 | 16808 | 86 | -56.2 | ||||
| 2010-01-01T00:00 | 16829 | 86 | -56.2 | ||||
| 2010-01-01T00:00 | 16835 | 86 | -56.2 | ||||
| 2010-01-01T00:00 | 16838 | 86 | -56.3 | ||||
| 2010-01-01T00:00 | 16856 | 85 | -56.0 | ||||
| 2010-01-01T00:00 | 16870 | 85 | -55.9 | ||||
| 2010-01-01T00:00 | 16875 | 85 | -56.0 | ||||
| 2010-01-01T00:00 | 16894 | 85 | -56.0 | 265 | 30 | ||
| 2010-01-01T00:00 | 16899 | 85 | -56.0 | ||||
| 2010-01-01T00:00 | 16910 | 85 | -56.0 | ||||
| 2010-01-01T00:00 | 16916 | 85 | -56.0 | ||||
| 2010-01-01T00:00 | 16940 | 84 | -56.1 | ||||
| 2010-01-01T00:00 | 16946 | 84 | -56.0 | ||||
| 2010-01-01T00:00 | 16950 | 84 | -56.1 | ||||
| 2010-01-01T00:00 | 16971 | 84 | -55.9 | ||||
| 2010-01-01T00:00 | 16987 | 84 | -55.8 | ||||
| 2010-01-01T00:00 | 16992 | 84 | -55.9 | ||||
| 2010-01-01T00:00 | 17015 | 83 | -55.8 | ||||
| 2010-01-01T00:00 | 17022 | 83 | -55.7 | ||||
| 2010-01-01T00:00 | 17025 | 83 | -55.8 | ||||
| 2010-01-01T00:00 | 17045 | 83 | -55.8 | ||||
| 2010-01-01T00:00 | 17055 | 83 | -55.8 | ||||
| 2010-01-01T00:00 | 17059 | 83 | -55.9 | ||||
| 2010-01-01T00:00 | 17083 | 82 | -55.9 | ||||
| 2010-01-01T00:00 | 17097 | 82 | -55.9 | ||||
| 2010-01-01T00:00 | 17102 | 82 | -56.0 | ||||
| 2010-01-01T00:00 | 17128 | 82 | -55.9 | ||||
| 2010-01-01T00:00 | 17140 | 82 | -55.9 | ||||
| 2010-01-01T00:00 | 17146 | 82 | -56.0 | ||||
| 2010-01-01T00:00 | 17168 | 81 | -55.8 | ||||
| 2010-01-01T00:00 | 17170 | 81 | -55.8 | 265 | 33 | ||
| 2010-01-01T00:00 | 17172 | 81 | -55.7 | ||||
| 2010-01-01T00:00 | 17175 | 81 | -55.8 | ||||
| 2010-01-01T00:00 | 17192 | 81 | -55.8 | ||||
| 2010-01-01T00:00 | 17208 | 81 | -55.5 | ||||
| 2010-01-01T00:00 | 17214 | 81 | -55.5 | ||||
| 2010-01-01T00:00 | 17238 | 80 | -55.2 | ||||
| 2010-01-01T00:00 | 17246 | 80 | -55.1 | ||||
| 2010-01-01T00:00 | 17249 | 80 | -55.2 | ||||
| 2010-01-01T00:00 | 17271 | 80 | -54.8 | ||||
| 2010-01-01T00:00 | 17280 | 80 | -54.8 | ||||
| 2010-01-01T00:00 | 17285 | 80 | -54.8 | ||||
| 2010-01-01T00:00 | 17309 | 80 | -54.8 | ||||
| 2010-01-01T00:00 | 17324 | 79 | -54.7 | ||||
| 2010-01-01T00:00 | 17328 | 79 | -54.9 | ||||
| 2010-01-01T00:00 | 17352 | 79 | -55.0 | ||||
| 2010-01-01T00:00 | 17361 | 79 | -55.0 | ||||
| 2010-01-01T00:00 | 17366 | 79 | -55.1 | ||||
| 2010-01-01T00:00 | 17385 | 79 | -55.0 | ||||
| 2010-01-01T00:00 | 17391 | 79 | -54.7 | ||||
| 2010-01-01T00:00 | 17395 | 79 | -54.7 | ||||
| 2010-01-01T00:00 | 17414 | 78 | -54.5 | ||||
| 2010-01-01T00:00 | 17430 | 78 | -54.5 | 263 | 33 | ||
| 2010-01-01T00:00 | 17435 | 78 | -54.7 | ||||
| 2010-01-01T00:00 | 17459 | 78 | -54.8 | ||||
| 2010-01-01T00:00 | 17468 | 78 | -54.8 | ||||
| 2010-01-01T00:00 | 17472 | 78 | -54.9 | ||||
| 2010-01-01T00:00 | 17493 | 77 | -55.0 | ||||
| 2010-01-01T00:00 | 17502 | 77 | -55.0 | ||||
| 2010-01-01T00:00 | 17539 | 77 | -55.2 | ||||
| 2010-01-01T00:00 | 17548 | 77 | -55.3 | ||||
| 2010-01-01T00:00 | 17567 | 76 | -55.2 | ||||
| 2010-01-01T00:00 | 17581 | 76 | -55.2 | ||||
| 2010-01-01T00:00 | 17585 | 76 | -55.3 | ||||
| 2010-01-01T00:00 | 17608 | 76 | -55.0 | ||||
| 2010-01-01T00:00 | 17617 | 76 | -54.9 | ||||
| 2010-01-01T00:00 | 17622 | 76 | -55.1 | ||||
| 2010-01-01T00:00 | 17654 | 75 | -54.8 | ||||
| 2010-01-01T00:00 | 17659 | 75 | -55.0 | ||||
| 2010-01-01T00:00 | 17678 | 75 | -54.9 | ||||
| 2010-01-01T00:00 | 17685 | 75 | -54.9 | ||||
| 2010-01-01T00:00 | 17687 | 75 | -55.1 | ||||
| 2010-01-01T00:00 | 17691 | 75 | -55.1 | 262 | 28 | ||
| 2010-01-01T00:00 | 17707 | 75 | -55.2 | ||||
| 2010-01-01T00:00 | 17719 | 75 | -55.3 | ||||
| 2010-01-01T00:00 | 17725 | 75 | -55.4 | ||||
| 2010-01-01T00:00 | 17750 | 74 | -55.3 | ||||
| 2010-01-01T00:00 | 17758 | 74 | -55.2 | ||||
| 2010-01-01T00:00 | 17761 | 74 | -55.4 | ||||
| 2010-01-01T00:00 | 17780 | 74 | -55.3 | ||||
| 2010-01-01T00:00 | 17791 | 74 | -55.0 | ||||
| 2010-01-01T00:00 | 17795 | 74 | -55.1 | ||||
| 2010-01-01T00:00 | 17817 | 74 | -55.0 | ||||
| 2010-01-01T00:00 | 17828 | 73 | -55.0 | ||||
| 2010-01-01T00:00 | 17833 | 73 | -55.2 | ||||
| 2010-01-01T00:00 | 17860 | 73 | -55.3 | ||||
| 2010-01-01T00:00 | 17871 | 73 | -55.2 | ||||
| 2010-01-01T00:00 | 17876 | 73 | -55.3 | ||||
| 2010-01-01T00:00 | 17899 | 73 | -55.3 | ||||
| 2010-01-01T00:00 | 17906 | 72 | -55.3 | ||||
| 2010-01-01T00:00 | 17913 | 72 | -55.5 | ||||
| 2010-01-01T00:00 | 17932 | 72 | -55.5 | ||||
| 2010-01-01T00:00 | 17941 | 72 | -55.6 | ||||
| 2010-01-01T00:00 | 17946 | 72 | -55.7 | ||||
| 2010-01-01T00:00 | 17961 | 72 | -55.7 | 262 | 27 | ||
| 2010-01-01T00:00 | 17971 | 72 | -55.6 | ||||
| 2010-01-01T00:00 | 17983 | 72 | -55.4 | ||||
| 2010-01-01T00:00 | 17989 | 72 | -55.5 | ||||
| 2010-01-01T00:00 | 18019 | 71 | -55.2 | ||||
| 2010-01-01T00:00 | 18032 | 71 | -55.1 | ||||
| 2010-01-01T00:00 | 18044 | 71 | -55.3 | ||||
| 2010-01-01T00:00 | 18072 | 71 | -55.1 | ||||
| 2010-01-01T00:00 | 18081 | 71 | -55.0 | ||||
| 2010-01-01T00:00 | 18085 | 70 | -55.1 | ||||
| 2010-01-01T00:00 | 18108 | 70 | -55.0 | ||||
| 2010-01-01T00:00 | 18117 | 70 | -55.0 | ||||
| 2010-01-01T00:00 | 18122 | 70 | -55.2 | ||||
| 2010-01-01T00:00 | 18130 | 70 | -55.2 | ||||
| 2010-01-01T00:00 | 18143 | 70 | -55.3 | ||||
| 2010-01-01T00:00 | 18150 | 70 | -55.4 | ||||
| 2010-01-01T00:00 | 18154 | 70 | -55.5 | ||||
| 2010-01-01T00:00 | 18176 | 70 | -55.4 | ||||
| 2010-01-01T00:00 | 18193 | 69 | -55.1 | ||||
| 2010-01-01T00:00 | 18199 | 69 | -55.1 | ||||
| 2010-01-01T00:00 | 18224 | 69 | -55.2 | ||||
| 2010-01-01T00:00 | 18232 | 69 | -55.3 | ||||
| 2010-01-01T00:00 | 18235 | 69 | -55.4 | ||||
| 2010-01-01T00:00 | 18254 | 69 | -55.5 | 267 | 30 | ||
| 2010-01-01T00:00 | 18328 | 68 | -55.7 | ||||
| 2010-01-01T00:00 | 18332 | 68 | -55.8 | ||||
| 2010-01-01T00:00 | 18555 | 65 | -55.7 | 268 | 33 | ||
| 2010-01-01T00:00 | 18560 | 65 | -56.0 | ||||
| 2010-01-01T00:00 | 18585 | 65 | -56.1 | ||||
| 2010-01-01T00:00 | 18592 | 65 | -55.8 | ||||
| 2010-01-01T00:00 | 18600 | 65 | -55.8 | ||||
| 2010-01-01T00:00 | 18616 | 65 | -55.5 | ||||
| 2010-01-01T00:00 | 18621 | 65 | -55.5 | ||||
| 2010-01-01T00:00 | 18624 | 65 | -55.7 | ||||
| 2010-01-01T00:00 | 18642 | 65 | -55.6 | ||||
| 2010-01-01T00:00 | 18653 | 64 | -55.6 | ||||
| 2010-01-01T00:00 | 18658 | 64 | -55.7 | ||||
| 2010-01-01T00:00 | 18681 | 64 | -55.7 | ||||
| 2010-01-01T00:00 | 18688 | 64 | -55.6 | ||||
| 2010-01-01T00:00 | 18691 | 64 | -55.7 | ||||
| 2010-01-01T00:00 | 18714 | 64 | -55.7 | ||||
| 2010-01-01T00:00 | 18732 | 64 | -55.7 | ||||
| 2010-01-01T00:00 | 18738 | 64 | -55.8 | ||||
| 2010-01-01T00:00 | 18759 | 63 | -55.3 | ||||
| 2010-01-01T00:00 | 18762 | 63 | -55.3 | ||||
| 2010-01-01T00:00 | 18763 | 63 | -55.4 | ||||
| 2010-01-01T00:00 | 18781 | 63 | -55.3 | ||||
| 2010-01-01T00:00 | 18794 | 63 | -55.4 | ||||
| 2010-01-01T00:00 | 18801 | 63 | -55.5 | ||||
| 2010-01-01T00:00 | 18805 | 63 | -55.5 | 269 | 32 | ||
| 2010-01-01T00:00 | 18824 | 63 | -55.5 | ||||
| 2010-01-01T00:00 | 18828 | 63 | -55.3 | ||||
| 2010-01-01T00:00 | 18832 | 63 | -55.4 | ||||
| 2010-01-01T00:00 | 18846 | 63 | -55.2 | ||||
| 2010-01-01T00:00 | 18855 | 62 | -55.1 | ||||
| 2010-01-01T00:00 | 18860 | 62 | -55.2 | ||||
| 2010-01-01T00:00 | 18880 | 62 | -55.0 | ||||
| 2010-01-01T00:00 | 18887 | 62 | -55.0 | ||||
| 2010-01-01T00:00 | 18890 | 62 | -55.2 | ||||
| 2010-01-01T00:00 | 18909 | 62 | -55.1 | ||||
| 2010-01-01T00:00 | 18919 | 62 | -55.1 | ||||
| 2010-01-01T00:00 | 18924 | 62 | -55.3 | ||||
| 2010-01-01T00:00 | 18957 | 61 | -55.0 | ||||
| 2010-01-01T00:00 | 18966 | 61 | -55.1 | ||||
| 2010-01-01T00:00 | 18986 | 61 | -55.2 | ||||
| 2010-01-01T00:00 | 18992 | 61 | -55.1 | ||||
| 2010-01-01T00:00 | 18995 | 61 | -55.2 | ||||
| 2010-01-01T00:00 | 19013 | 61 | -55.0 | ||||
| 2010-01-01T00:00 | 19023 | 61 | -54.9 | ||||
| 2010-01-01T00:00 | 19028 | 61 | -55.0 | ||||
| 2010-01-01T00:00 | 19040 | 61 | -54.9 | 271 | 31 | ||
| 2010-01-01T00:00 | 19048 | 61 | -54.9 | ||||
| 2010-01-01T00:00 | 19054 | 61 | -54.8 | ||||
| 2010-01-01T00:00 | 19056 | 61 | -54.9 | ||||
| 2010-01-01T00:00 | 19074 | 60 | -54.9 | ||||
| 2010-01-01T00:00 | 19084 | 60 | -54.9 | ||||
| 2010-01-01T00:00 | 19093 | 60 | -55.0 | ||||
| 2010-01-01T00:00 | 19115 | 60 | -55.1 | ||||
| 2010-01-01T00:00 | 19124 | 60 | -55.0 | ||||
| 2010-01-01T00:00 | 19128 | 60 | -55.1 | ||||
| 2010-01-01T00:00 | 19145 | 60 | -55.1 | ||||
| 2010-01-01T00:00 | 19151 | 60 | -55.0 | ||||
| 2010-01-01T00:00 | 19153 | 60 | -55.0 | ||||
| 2010-01-01T00:00 | 19172 | 59 | -55.0 | ||||
| 2010-01-01T00:00 | 19182 | 59 | -55.0 | ||||
| 2010-01-01T00:00 | 19187 | 59 | -55.1 | ||||
| 2010-01-01T00:00 | 19207 | 59 | -54.9 | ||||
| 2010-01-01T00:00 | 19213 | 59 | -54.8 | ||||
| 2010-01-01T00:00 | 19218 | 59 | -54.8 | ||||
| 2010-01-01T00:00 | 19238 | 59 | -54.5 | ||||
| 2010-01-01T00:00 | 19252 | 59 | -54.5 | ||||
| 2010-01-01T00:00 | 19259 | 59 | -54.7 | ||||
| 2010-01-01T00:00 | 19290 | 58 | -54.1 | 271 | 31 | ||
| 2010-01-01T00:00 | 19301 | 58 | -54.1 | ||||
| 2010-01-01T00:00 | 19306 | 58 | -54.2 | ||||
| 2010-01-01T00:00 | 19331 | 58 | -54.4 | ||||
| 2010-01-01T00:00 | 19339 | 58 | -54.4 | ||||
| 2010-01-01T00:00 | 19343 | 58 | -54.6 | ||||
| 2010-01-01T00:00 | 19366 | 58 | -54.7 | ||||
| 2010-01-01T00:00 | 19377 | 58 | -54.7 | ||||
| 2010-01-01T00:00 | 19388 | 57 | -54.9 | ||||
| 2010-01-01T00:00 | 19412 | 57 | -54.9 | ||||
| 2010-01-01T00:00 | 19420 | 57 | -55.0 | ||||
| 2010-01-01T00:00 | 19424 | 57 | -55.1 | ||||
| 2010-01-01T00:00 | 19444 | 57 | -55.2 | ||||
| 2010-01-01T00:00 | 19452 | 57 | -55.3 | ||||
| 2010-01-01T00:00 | 19455 | 57 | -55.5 | ||||
| 2010-01-01T00:00 | 19482 | 57 | -55.5 | ||||
| 2010-01-01T00:00 | 19497 | 56 | -55.4 | ||||
| 2010-01-01T00:00 | 19505 | 56 | -55.6 | ||||
| 2010-01-01T00:00 | 19528 | 56 | -55.6 | ||||
| 2010-01-01T00:00 | 19529 | 56 | -55.5 | ||||
| 2010-01-01T00:00 | 19548 | 56 | -55.1 | ||||
| 2010-01-01T00:00 | 19565 | 56 | -54.9 | 271 | 31 | ||
| 2010-01-01T00:00 | 19573 | 56 | -54.9 | ||||
| 2010-01-01T00:00 | 19610 | 56 | -54.4 | ||||
| 2010-01-01T00:00 | 19621 | 55 | -54.3 | ||||
| 2010-01-01T00:00 | 19627 | 55 | -54.5 | ||||
| 2010-01-01T00:00 | 19654 | 55 | -54.5 | ||||
| 2010-01-01T00:00 | 19665 | 55 | -54.4 | ||||
| 2010-01-01T00:00 | 19670 | 55 | -54.5 | ||||
| 2010-01-01T00:00 | 19696 | 55 | -54.6 | ||||
| 2010-01-01T00:00 | 19706 | 55 | -54.6 | ||||
| 2010-01-01T00:00 | 19711 | 55 | -54.7 | ||||
| 2010-01-01T00:00 | 19741 | 54 | -54.8 | ||||
| 2010-01-01T00:00 | 19762 | 54 | -54.8 | ||||
| 2010-01-01T00:00 | 19768 | 54 | -54.9 | ||||
| 2010-01-01T00:00 | 19797 | 54 | -54.8 | ||||
| 2010-01-01T00:00 | 19805 | 54 | -54.8 | ||||
| 2010-01-01T00:00 | 19809 | 54 | -54.9 | ||||
| 2010-01-01T00:00 | 19840 | 54 | -54.9 | ||||
| 2010-01-01T00:00 | 19858 | 53 | -54.8 | ||||
| 2010-01-01T00:00 | 19868 | 53 | -55.0 | ||||
| 2010-01-01T00:00 | 19904 | 53 | -54.9 | ||||
| 2010-01-01T00:00 | 19913 | 53 | -54.9 | ||||
| 2010-01-01T00:00 | 19917 | 53 | -55.1 | ||||
| 2010-01-01T00:00 | 19924 | 53 | -55.1 | 268 | 30 | ||
| 2010-01-01T00:00 | 19935 | 53 | -55.2 | ||||
| 2010-01-01T00:00 | 19939 | 53 | -55.1 | ||||
| 2010-01-01T00:00 | 19943 | 53 | -55.3 | ||||
| 2010-01-01T00:00 | 19966 | 52 | -55.3 | ||||
| 2010-01-01T00:00 | 19982 | 52 | -55.2 | ||||
| 2010-01-01T00:00 | 19989 | 52 | -55.3 | ||||
| 2010-01-01T00:00 | 20025 | 52 | -55.3 | ||||
| 2010-01-01T00:00 | 20037 | 52 | -55.3 | ||||
| 2010-01-01T00:00 | 20042 | 52 | -55.4 | ||||
| 2010-01-01T00:00 | 20071 | 52 | -55.4 | ||||
| 2010-01-01T00:00 | 20082 | 52 | -55.2 | ||||
| 2010-01-01T00:00 | 20087 | 52 | -55.3 | ||||
| 2010-01-01T00:00 | 20108 | 51 | -55.3 | ||||
| 2010-01-01T00:00 | 20113 | 51 | -55.1 | ||||
| 2010-01-01T00:00 | 20118 | 51 | -55.0 | ||||
| 2010-01-01T00:00 | 20137 | 51 | -54.7 | ||||
| 2010-01-01T00:00 | 20147 | 51 | -54.6 | ||||
| 2010-01-01T00:00 | 20153 | 51 | -54.7 | ||||
| 2010-01-01T00:00 | 20180 | 51 | -54.7 | ||||
| 2010-01-01T00:00 | 20192 | 51 | -54.6 | ||||
| 2010-01-01T00:00 | 20197 | 51 | -54.7 | ||||
| 2010-01-01T00:00 | 20216 | 50 | -54.7 | 268 | 30 | ||
| 2010-01-01T00:00 | 20221 | 50 | -54.7 | ||||
| 2010-01-01T00:00 | 20229 | 50 | -54.6 | ||||
| 2010-01-01T00:00 | 20233 | 50 | -54.8 | ||||
| 2010-01-01T00:00 | 20257 | 50 | -54.5 | ||||
| 2010-01-01T00:00 | 20269 | 50 | -54.5 | ||||
| 2010-01-01T00:00 | 20275 | 50 | -54.6 | ||||
| 2010-01-01T00:00 | 20277 | 50 | -54.6 | ||||
| 2010-01-01T00:00 | 20305 | 50 | -54.6 | ||||
| 2010-01-01T00:00 | 20317 | 50 | -54.6 | ||||
| 2010-01-01T00:00 | 20328 | 50 | -54.7 | ||||
| 2010-01-01T00:00 | 20357 | 49 | -54.5 | ||||
| 2010-01-01T00:00 | 20369 | 49 | -54.4 | ||||
| 2010-01-01T00:00 | 20375 | 49 | -54.5 | ||||
| 2010-01-01T00:00 | 20403 | 49 | -54.4 | ||||
| 2010-01-01T00:00 | 20413 | 49 | -54.2 | ||||
| 2010-01-01T00:00 | 20418 | 49 | -54.4 | ||||
| 2010-01-01T00:00 | 20441 | 49 | -54.1 | ||||
| 2010-01-01T00:00 | 20449 | 49 | -54.1 | ||||
| 2010-01-01T00:00 | 20452 | 49 | -54.2 | ||||
| 2010-01-01T00:00 | 20475 | 48 | -54.0 | ||||
| 2010-01-01T00:00 | 20485 | 48 | -53.7 | ||||
| 2010-01-01T00:00 | 20490 | 48 | -53.8 | ||||
| 2010-01-01T00:00 | 20514 | 48 | -53.7 | ||||
| 2010-01-01T00:00 | 20522 | 48 | -53.4 | 270 | 38 | ||
| 2010-01-01T00:00 | 20530 | 48 | -53.5 | ||||
| 2010-01-01T00:00 | 20553 | 48 | -53.5 | ||||
| 2010-01-01T00:00 | 20564 | 48 | -53.5 | ||||
| 2010-01-01T00:00 | 20569 | 48 | -53.6 | ||||
| 2010-01-01T00:00 | 20590 | 48 | -53.6 | ||||
| 2010-01-01T00:00 | 20595 | 48 | -53.6 | ||||
| 2010-01-01T00:00 | 20597 | 48 | -53.7 | ||||
| 2010-01-01T00:00 | 20615 | 47 | -53.8 | ||||
| 2010-01-01T00:00 | 20624 | 47 | -53.8 | ||||
| 2010-01-01T00:00 | 20629 | 47 | -53.9 | ||||
| 2010-01-01T00:00 | 20651 | 47 | -54.0 | ||||
| 2010-01-01T00:00 | 20658 | 47 | -53.8 | ||||
| 2010-01-01T00:00 | 20662 | 47 | -53.9 | ||||
| 2010-01-01T00:00 | 20681 | 47 | -53.3 | ||||
| 2010-01-01T00:00 | 20690 | 47 | -53.2 | ||||
| 2010-01-01T00:00 | 20694 | 47 | -53.3 | ||||
| 2010-01-01T00:00 | 20713 | 47 | -53.2 | ||||
| 2010-01-01T00:00 | 20720 | 47 | -53.2 | ||||
| 2010-01-01T00:00 | 20726 | 47 | -53.3 | ||||
| 2010-01-01T00:00 | 20751 | 46 | -53.3 | ||||
| 2010-01-01T00:00 | 20765 | 46 | -53.3 | ||||
| 2010-01-01T00:00 | 20772 | 46 | -53.4 | ||||
| 2010-01-01T00:00 | 20778 | 46 | -53.3 | 263 | 37 | ||
| 2010-01-01T00:00 | 20799 | 46 | -53.3 | ||||
| 2010-01-01T00:00 | 20803 | 46 | -53.3 | ||||
| 2010-01-01T00:00 | 20805 | 46 | -53.4 | ||||
| 2010-01-01T00:00 | 20821 | 46 | -53.3 | ||||
| 2010-01-01T00:00 | 20830 | 46 | -53.2 | ||||
| 2010-01-01T00:00 | 20835 | 46 | -53.4 | ||||
| 2010-01-01T00:00 | 20852 | 46 | -53.3 | ||||
| 2010-01-01T00:00 | 20856 | 46 | -53.2 | ||||
| 2010-01-01T00:00 | 20858 | 46 | -53.4 | ||||
| 2010-01-01T00:00 | 20873 | 46 | -53.2 | ||||
| 2010-01-01T00:00 | 20883 | 46 | -53.1 | ||||
| 2010-01-01T00:00 | 20888 | 45 | -53.2 | ||||
| 2010-01-01T00:00 | 20911 | 45 | -53.3 | ||||
| 2010-01-01T00:00 | 20919 | 45 | -53.3 | ||||
| 2010-01-01T00:00 | 20945 | 45 | -53.5 | ||||
| 2010-01-01T00:00 | 20957 | 45 | -53.5 | ||||
| 2010-01-01T00:00 | 20961 | 45 | -53.6 | ||||
| 2010-01-01T00:00 | 20987 | 45 | -53.3 | ||||
| 2010-01-01T00:00 | 20999 | 45 | -53.3 | ||||
| 2010-01-01T00:00 | 21005 | 45 | -53.4 | ||||
| 2010-01-01T00:00 | 21025 | 45 | -53.5 | 262 | 37 | ||
| 2010-01-01T00:00 | 21029 | 44 | -53.5 | ||||
| 2010-01-01T00:00 | 21034 | 44 | -53.4 | ||||
| 2010-01-01T00:00 | 21037 | 44 | -53.6 | ||||
| 2010-01-01T00:00 | 21058 | 44 | -53.5 | ||||
| 2010-01-01T00:00 | 21072 | 44 | -53.3 | ||||
| 2010-01-01T00:00 | 21079 | 44 | -53.5 | ||||
| 2010-01-01T00:00 | 21102 | 44 | -53.5 | ||||
| 2010-01-01T00:00 | 21104 | 44 | -53.4 | ||||
| 2010-01-01T00:00 | 21124 | 44 | -53.5 | ||||
| 2010-01-01T00:00 | 21141 | 44 | -53.5 | ||||
| 2010-01-01T00:00 | 21150 | 44 | -53.7 | ||||
| 2010-01-01T00:00 | 21184 | 43 | -53.8 | ||||
| 2010-01-01T00:00 | 21193 | 43 | -53.7 | ||||
| 2010-01-01T00:00 | 21202 | 43 | -53.9 | ||||
| 2010-01-01T00:00 | 21222 | 43 | -53.8 | ||||
| 2010-01-01T00:00 | 21229 | 43 | -53.9 | ||||
| 2010-01-01T00:00 | 21233 | 43 | -54.0 | ||||
| 2010-01-01T00:00 | 21248 | 43 | -54.1 | ||||
| 2010-01-01T00:00 | 21252 | 43 | -54.1 | ||||
| 2010-01-01T00:00 | 21254 | 43 | -54.3 | ||||
| 2010-01-01T00:00 | 21277 | 43 | -54.3 | ||||
| 2010-01-01T00:00 | 21293 | 43 | -54.3 | 278 | 36 | ||
| 2010-01-01T00:00 | 21300 | 43 | -54.5 | ||||
| 2010-01-01T00:00 | 21346 | 42 | -54.5 | ||||
| 2010-01-01T00:00 | 21351 | 42 | -54.6 | ||||
| 2010-01-01T00:00 | 21382 | 42 | -54.7 | ||||
| 2010-01-01T00:00 | 21396 | 42 | -54.7 | ||||
| 2010-01-01T00:00 | 21403 | 42 | -54.9 | ||||
| 2010-01-01T00:00 | 21435 | 42 | -55.0 | ||||
| 2010-01-01T00:00 | 21446 | 42 | -55.1 | ||||
| 2010-01-01T00:00 | 21457 | 42 | -55.2 | ||||
| 2010-01-01T00:00 | 21475 | 41 | -55.3 | ||||
| 2010-01-01T00:00 | 21476 | 41 | -55.4 | ||||
| 2010-01-01T00:00 | 21477 | 41 | -55.5 | ||||
| 2010-01-01T00:00 | 21494 | 41 | -55.4 | ||||
| 2010-01-01T00:00 | 21509 | 41 | -55.3 | ||||
| 2010-01-01T00:00 | 21517 | 41 | -55.3 | ||||
| 2010-01-01T00:00 | 21549 | 41 | -54.9 | ||||
| 2010-01-01T00:00 | 21558 | 41 | -54.8 | ||||
| 2010-01-01T00:00 | 21563 | 41 | -54.9 | ||||
| 2010-01-01T00:00 | 21592 | 41 | -54.4 | ||||
| 2010-01-01T00:00 | 21608 | 41 | -54.3 | ||||
| 2010-01-01T00:00 | 21615 | 41 | -54.4 | ||||
| 2010-01-01T00:00 | 21627 | 41 | -54.4 | 268 | 37 | ||
| 2010-01-01T00:00 | 21645 | 40 | -54.4 | ||||
| 2010-01-01T00:00 | 21651 | 40 | -54.3 | ||||
| 2010-01-01T00:00 | 21654 | 40 | -54.6 | ||||
| 2010-01-01T00:00 | 21678 | 40 | -54.7 | ||||
| 2010-01-01T00:00 | 21700 | 40 | -54.5 | ||||
| 2010-01-01T00:00 | 21708 | 40 | -54.7 | ||||
| 2010-01-01T00:00 | 21741 | 40 | -54.6 | ||||
| 2010-01-01T00:00 | 21754 | 40 | -54.5 | ||||
| 2010-01-01T00:00 | 21760 | 40 | -54.5 | ||||
| 2010-01-01T00:00 | 21786 | 40 | -54.3 | ||||
| 2010-01-01T00:00 | 21794 | 39 | -54.3 | ||||
| 2010-01-01T00:00 | 21798 | 39 | -54.4 | ||||
| 2010-01-01T00:00 | 21821 | 39 | -54.4 | ||||
| 2010-01-01T00:00 | 21831 | 39 | -54.4 | ||||
| 2010-01-01T00:00 | 21837 | 39 | -54.6 | ||||
| 2010-01-01T00:00 | 21863 | 39 | -54.7 | ||||
| 2010-01-01T00:00 | 21873 | 39 | -54.6 | ||||
| 2010-01-01T00:00 | 21878 | 39 | -54.8 | ||||
| 2010-01-01T00:00 | 21905 | 39 | -54.8 | ||||
| 2010-01-01T00:00 | 21916 | 39 | -54.8 | ||||
| 2010-01-01T00:00 | 21921 | 39 | -54.9 | ||||
| 2010-01-01T00:00 | 21951 | 39 | -55.1 | 273 | 33 | ||
| 2010-01-01T00:00 | 21963 | 38 | -55.1 | ||||
| 2010-01-01T00:00 | 21976 | 38 | -55.1 | ||||
| 2010-01-01T00:00 | 22012 | 38 | -55.0 | ||||
| 2010-01-01T00:00 | 22029 | 38 | -54.9 | ||||
| 2010-01-01T00:00 | 22038 | 38 | -55.0 | ||||
| 2010-01-01T00:00 | 22074 | 38 | -55.0 | ||||
| 2010-01-01T00:00 | 22085 | 38 | -55.1 | ||||
| 2010-01-01T00:00 | 22091 | 38 | -55.2 | ||||
| 2010-01-01T00:00 | 22113 | 38 | -55.2 | ||||
| 2010-01-01T00:00 | 22118 | 38 | -55.2 | ||||
| 2010-01-01T00:00 | 22121 | 38 | -55.4 | ||||
| 2010-01-01T00:00 | 22137 | 37 | -55.5 | ||||
| 2010-01-01T00:00 | 22144 | 37 | -55.6 | ||||
| 2010-01-01T00:00 | 22148 | 37 | -55.7 | ||||
| 2010-01-01T00:00 | 22176 | 37 | -55.8 | ||||
| 2010-01-01T00:00 | 22193 | 37 | -55.8 | ||||
| 2010-01-01T00:00 | 22201 | 37 | -56.0 | ||||
| 2010-01-01T00:00 | 22233 | 37 | -56.1 | ||||
| 2010-01-01T00:00 | 22242 | 37 | -56.0 | ||||
| 2010-01-01T00:00 | 22246 | 37 | -56.2 | ||||
| 2010-01-01T00:00 | 22263 | 37 | -56.2 | ||||
| 2010-01-01T00:00 | 22272 | 37 | -56.2 | 271 | 41 | ||
| 2010-01-01T00:00 | 22276 | 37 | -56.3 | ||||
| 2010-01-01T00:00 | 22300 | 36 | -56.4 | ||||
| 2010-01-01T00:00 | 22311 | 36 | -56.4 | ||||
| 2010-01-01T00:00 | 22317 | 36 | -56.5 | ||||
| 2010-01-01T00:00 | 22336 | 36 | -56.5 | ||||
| 2010-01-01T00:00 | 22339 | 36 | -56.5 | ||||
| 2010-01-01T00:00 | 22341 | 36 | -56.7 | ||||
| 2010-01-01T00:00 | 22358 | 36 | -56.5 | ||||
| 2010-01-01T00:00 | 22372 | 36 | -56.4 | ||||
| 2010-01-01T00:00 | 22378 | 36 | -56.5 | ||||
| 2010-01-01T00:00 | 22405 | 36 | -56.4 | ||||
| 2010-01-01T00:00 | 22412 | 36 | -56.3 | ||||
| 2010-01-01T00:00 | 22419 | 36 | -56.4 | ||||
| 2010-01-01T00:00 | 22447 | 36 | -56.2 | ||||
| 2010-01-01T00:00 | 22464 | 36 | -56.0 | ||||
| 2010-01-01T00:00 | 22472 | 35 | -56.0 | ||||
| 2010-01-01T00:00 | 22504 | 35 | -55.5 | ||||
| 2010-01-01T00:00 | 22511 | 35 | -55.2 | ||||
| 2010-01-01T00:00 | 22514 | 35 | -55.4 | ||||
| 2010-01-01T00:00 | 22528 | 35 | -55.1 | ||||
| 2010-01-01T00:00 | 22532 | 35 | -55.0 | ||||
| 2010-01-01T00:00 | 22535 | 35 | -55.2 | ||||
| 2010-01-01T00:00 | 22540 | 35 | -55.1 | 267 | 41 | ||
| 2010-01-01T00:00 | 22547 | 35 | -55.1 | ||||
| 2010-01-01T00:00 | 22553 | 35 | -54.7 | ||||
| 2010-01-01T00:00 | 22556 | 35 | -54.8 | ||||
| 2010-01-01T00:00 | 22576 | 35 | -54.7 | ||||
| 2010-01-01T00:00 | 22588 | 35 | -54.6 | ||||
| 2010-01-01T00:00 | 22594 | 35 | -54.7 | ||||
| 2010-01-01T00:00 | 22624 | 35 | -54.7 | ||||
| 2010-01-01T00:00 | 22637 | 35 | -54.7 | ||||
| 2010-01-01T00:00 | 22643 | 35 | -54.8 | ||||
| 2010-01-01T00:00 | 22671 | 34 | -54.6 | ||||
| 2010-01-01T00:00 | 22680 | 34 | -54.6 | ||||
| 2010-01-01T00:00 | 22689 | 34 | -54.7 | ||||
| 2010-01-01T00:00 | 22709 | 34 | -54.7 | ||||
| 2010-01-01T00:00 | 22716 | 34 | -54.6 | ||||
| 2010-01-01T00:00 | 22719 | 34 | -54.6 | ||||
| 2010-01-01T00:00 | 22741 | 34 | -54.4 | ||||
| 2010-01-01T00:00 | 22752 | 34 | -54.3 | ||||
| 2010-01-01T00:00 | 22757 | 34 | -54.4 | ||||
| 2010-01-01T00:00 | 22784 | 34 | -54.4 | ||||
| 2010-01-01T00:00 | 22795 | 34 | -54.3 | ||||
| 2010-01-01T00:00 | 22801 | 34 | -54.5 | ||||
| 2010-01-01T00:00 | 22825 | 34 | -54.6 | 273 | 42 | ||
| 2010-01-01T00:00 | 22832 | 34 | -54.6 | ||||
| 2010-01-01T00:00 | 22836 | 34 | -54.8 | ||||
| 2010-01-01T00:00 | 22861 | 33 | -54.8 | ||||
| 2010-01-01T00:00 | 22874 | 33 | -54.7 | ||||
| 2010-01-01T00:00 | 22881 | 33 | -54.9 | ||||
| 2010-01-01T00:00 | 22908 | 33 | -54.9 | ||||
| 2010-01-01T00:00 | 22915 | 33 | -54.8 | ||||
| 2010-01-01T00:00 | 22918 | 33 | -55.0 | ||||
| 2010-01-01T00:00 | 22943 | 33 | -55.1 | ||||
| 2010-01-01T00:00 | 22958 | 33 | -55.2 | ||||
| 2010-01-01T00:00 | 22973 | 33 | -55.1 | ||||
| 2010-01-01T00:00 | 23006 | 33 | -54.9 | ||||
| 2010-01-01T00:00 | 23016 | 33 | -54.8 | ||||
| 2010-01-01T00:00 | 23021 | 33 | -55.0 | ||||
| 2010-01-01T00:00 | 23046 | 32 | -54.8 | ||||
| 2010-01-01T00:00 | 23056 | 32 | -54.8 | ||||
| 2010-01-01T00:00 | 23061 | 32 | -54.9 | ||||
| 2010-01-01T00:00 | 23082 | 32 | -54.9 | ||||
| 2010-01-01T00:00 | 23088 | 32 | -54.9 | ||||
| 2010-01-01T00:00 | 23090 | 32 | -54.9 | ||||
| 2010-01-01T00:00 | 23112 | 32 | -54.8 | ||||
| 2010-01-01T00:00 | 23124 | 32 | -54.8 | ||||
| 2010-01-01T00:00 | 23131 | 32 | -54.8 | 287 | 41 | ||
| 2010-01-01T00:00 | 23163 | 32 | -54.8 | ||||
| 2010-01-01T00:00 | 23176 | 32 | -54.4 | ||||
| 2010-01-01T00:00 | 23182 | 32 | -54.4 | ||||
| 2010-01-01T00:00 | 23218 | 32 | -54.4 | ||||
| 2010-01-01T00:00 | 23235 | 31 | -54.4 | ||||
| 2010-01-01T00:00 | 23244 | 31 | -54.5 | ||||
| 2010-01-01T00:00 | 23277 | 31 | -54.8 | ||||
| 2010-01-01T00:00 | 23284 | 31 | -54.8 | ||||
| 2010-01-01T00:00 | 23288 | 31 | -55.0 | ||||
| 2010-01-01T00:00 | 23311 | 31 | -55.1 | ||||
| 2010-01-01T00:00 | 23324 | 31 | -55.1 | ||||
| 2010-01-01T00:00 | 23337 | 31 | -55.3 | ||||
| 2010-01-01T00:00 | 23366 | 31 | -55.4 | ||||
| 2010-01-01T00:00 | 23377 | 31 | -55.4 | ||||
| 2010-01-01T00:00 | 23382 | 31 | -55.5 | ||||
| 2010-01-01T00:00 | 23411 | 31 | -55.6 | ||||
| 2010-01-01T00:00 | 23426 | 31 | -55.7 | ||||
| 2010-01-01T00:00 | 23433 | 31 | -55.8 | ||||
| 2010-01-01T00:00 | 23463 | 30 | -55.9 | ||||
| 2010-01-01T00:00 | 23471 | 30 | -56.0 | ||||
| 2010-01-01T00:00 | 23476 | 30 | -56.1 | ||||
| 2010-01-01T00:00 | 23491 | 30 | -56.2 | 286 | 37 | ||
| 2010-01-01T00:00 | 23500 | 30 | -56.3 | ||||
| 2010-01-01T00:00 | 23511 | 30 | -56.3 | ||||
| 2010-01-01T00:00 | 23517 | 30 | -56.2 | ||||
| 2010-01-01T00:00 | 23544 | 30 | -55.9 | ||||
| 2010-01-01T00:00 | 23552 | 30 | -55.8 | ||||
| 2010-01-01T00:00 | 23570 | 30 | -55.7 | ||||
| 2010-01-01T00:00 | 23579 | 30 | -55.8 | ||||
| 2010-01-01T00:00 | 23615 | 30 | -55.9 | ||||
| 2010-01-01T00:00 | 23624 | 30 | -55.8 | ||||
| 2010-01-01T00:00 | 23629 | 30 | -56.0 | ||||
| 2010-01-01T00:00 | 23655 | 29 | -56.0 | ||||
| 2010-01-01T00:00 | 23667 | 29 | -56.0 | ||||
| 2010-01-01T00:00 | 23673 | 29 | -56.2 | ||||
| 2010-01-01T00:00 | 23700 | 29 | -56.3 | ||||
| 2010-01-01T00:00 | 23713 | 29 | -56.2 | ||||
| 2010-01-01T00:00 | 23717 | 29 | -56.4 | ||||
| 2010-01-01T00:00 | 23742 | 29 | -56.3 | ||||
| 2010-01-01T00:00 | 23754 | 29 | -56.2 | ||||
| 2010-01-01T00:00 | 23760 | 29 | -56.2 | ||||
| 2010-01-01T00:00 | 23785 | 29 | -56.2 | ||||
| 2010-01-01T00:00 | 23791 | 29 | -56.2 | ||||
| 2010-01-01T00:00 | 23794 | 29 | -56.4 | ||||
| 2010-01-01T00:00 | 23813 | 29 | -56.5 | ||||
| 2010-01-01T00:00 | 23818 | 29 | -56.3 | 275 | 39 | ||
| 2010-01-01T00:00 | 23822 | 29 | -56.2 | ||||
| 2010-01-01T00:00 | 23827 | 29 | -56.0 | ||||
| 2010-01-01T00:00 | 23853 | 29 | -55.7 | ||||
| 2010-01-01T00:00 | 23866 | 29 | -55.7 | ||||
| 2010-01-01T00:00 | 23872 | 28 | -55.9 | ||||
| 2010-01-01T00:00 | 23901 | 28 | -55.8 | ||||
| 2010-01-01T00:00 | 23913 | 28 | -55.8 | ||||
| 2010-01-01T00:00 | 23918 | 28 | -56.0 | ||||
| 2010-01-01T00:00 | 23945 | 28 | -55.7 | ||||
| 2010-01-01T00:00 | 23955 | 28 | -55.5 | ||||
| 2010-01-01T00:00 | 23961 | 28 | -55.6 | ||||
| 2010-01-01T00:00 | 23982 | 28 | -55.5 | ||||
| 2010-01-01T00:00 | 23989 | 28 | -55.2 | ||||
| 2010-01-01T00:00 | 23996 | 28 | -55.3 | ||||
| 2010-01-01T00:00 | 24009 | 28 | -55.0 | ||||
| 2010-01-01T00:00 | 24014 | 28 | -54.8 | ||||
| 2010-01-01T00:00 | 24016 | 28 | -54.9 | ||||
| 2010-01-01T00:00 | 24038 | 28 | -54.9 | ||||
| 2010-01-01T00:00 | 24054 | 28 | -54.7 | ||||
| 2010-01-01T00:00 | 24062 | 28 | -54.8 | ||||
| 2010-01-01T00:00 | 24095 | 28 | -54.3 | ||||
| 2010-01-01T00:00 | 24104 | 27 | -54.2 | ||||
| 2010-01-01T00:00 | 24108 | 27 | -54.3 | ||||
| 2010-01-01T00:00 | 24112 | 27 | -54.3 | 290 | 34 | ||
| 2010-01-01T00:00 | 24128 | 27 | -54.2 | ||||
| 2010-01-01T00:00 | 24135 | 27 | -54.2 | ||||
| 2010-01-01T00:00 | 24139 | 27 | -54.3 | ||||
| 2010-01-01T00:00 | 24153 | 27 | -54.3 | ||||
| 2010-01-01T00:00 | 24156 | 27 | -54.2 | ||||
| 2010-01-01T00:00 | 24158 | 27 | -54.4 | ||||
| 2010-01-01T00:00 | 24171 | 27 | -54.3 | ||||
| 2010-01-01T00:00 | 24179 | 27 | -54.2 | ||||
| 2010-01-01T00:00 | 24183 | 27 | -54.2 | ||||
| 2010-01-01T00:00 | 24255 | 27 | -53.6 | ||||
| 2010-01-01T00:00 | 24262 | 27 | -53.5 | ||||
| 2010-01-01T00:00 | 24265 | 27 | -53.6 | ||||
| 2010-01-01T00:00 | 24283 | 27 | -53.6 | ||||
| 2010-01-01T00:00 | 24291 | 27 | -53.6 | ||||
| 2010-01-01T00:00 | 24295 | 27 | -53.7 | ||||
| 2010-01-01T00:00 | 24318 | 27 | -53.6 | ||||
| 2010-01-01T00:00 | 24329 | 27 | -53.5 |
Only the first 2000 rows were shown. To view the complete dataset, download it as tab-delimited text. You can still view the full matrix in your browser, but be aware that this may crash the browser due to the huge size.
